Time,TemperatureF,DewpointF,PressureIn,WindDirection,WindDirectionDegrees,WindSpeedMPH,WindSpeedGustMPH,Humidity,HourlyPrecipIn,Conditions,Clouds,dailyrainin,SoftwareType,DateUTC
2013-05-01 00:00:00,51.1,45.8,29.79,SSE,167,0.0,0.0,82,0.00,,BKN110,0.00,VWS V12.07,2013-05-01 05:00:00,
2013-05-01 00:01:00,51.0,45.7,29.79,SSE,167,0.0,0.0,82,0.00,,BKN110,0.00,VWS V12.07,2013-05-01 05:01:00,
2013-05-01 00:04:00,51.0,46.0,29.79,SSE,167,0.0,0.0,83,0.00,,BKN110,0.00,VWS V12.07,2013-05-01 05:04:00,
2013-05-01 00:05:00,50.8,45.8,29.79,SSE,167,0.0,0.0,83,0.00,,BKN110,0.00,VWS V12.07,2013-05-01 05:05:00,
2013-05-01 00:07:00,50.7,45.7,29.79,SSE,167,0.0,0.0,83,0.00,,BKN110,0.00,VWS V12.07,2013-05-01 05:07:00,
2013-05-01 00:09:00,50.5,45.5,29.79,SSE,167,0.0,0.0,83,0.00,,BKN110,0.00,VWS V12.07,2013-05-01 05:09:00,
2013-05-01 00:10:00,50.5,45.8,29.79,SSE,167,0.0,0.0,84,0.00,,BKN110,0.00,VWS V12.07,2013-05-01 05:10:00,
2013-05-01 00:12:00,50.4,46.1,29.79,SSE,167,0.0,0.0,85,0.00,,BKN110,0.00,VWS V12.07,2013-05-01 05:12:00,
2013-05-01 00:14:00,50.1,45.8,29.80,SSE,167,0.0,0.0,85,0.00,,BKN110,0.00,VWS V12.07,2013-05-01 05:14:00,
2013-05-01 00:15:00,50.1,46.1,29.80,SSE,167,0.0,0.0,86,0.00,,BKN110,0.00,VWS V12.07,2013-05-01 05:15:00,
2013-05-01 00:17:00,49.9,45.9,29.80,SSE,167,0.0,0.0,86,0.00,,BKN110,0.00,VWS V12.07,2013-05-01 05:17:00,
2013-05-01 00:19:00,49.8,45.8,29.80,SSE,167,0.0,0.0,86,0.00,,BKN110,0.00,VWS V12.07,2013-05-01 05:19:00,
2013-05-01 00:20:00,49.8,45.8,29.80,SSE,167,0.0,0.0,86,0.00,,BKN110,0.00,VWS V12.07,2013-05-01 05:20:00,
2013-05-01 00:21:00,49.8,45.8,29.80,SSE,167,0.0,0.0,86,0.00,,BKN110,0.00,VWS V12.07,2013-05-01 05:21:00,
2013-05-01 00:22:00,49.8,45.8,29.80,SSE,167,0.0,0.0,86,0.00,,BKN110,0.00,VWS V12.07,2013-05-01 05:22:00,
2013-05-01 00:23:00,49.8,46.1,29.80,SSE,167,1.0,2.0,87,0.00,,BKN110,0.00,VWS V12.07,2013-05-01 05:23:00,
2013-05-01 00:25:00,49.8,46.1,29.80,SSE,167,1.0,2.0,87,0.00,,BKN110,0.00,VWS V12.07,2013-05-01 05:25:00,
2013-05-01 00:26:00,49.8,46.1,29.80,SSE,167,1.0,2.0,87,0.00,,BKN110,0.00,VWS V12.07,2013-05-01 05:26:00,
2013-05-01 00:27:00,49.8,46.4,29.80,SSE,167,1.0,2.0,88,0.00,,BKN110,0.00,VWS V12.07,2013-05-01 05:27:00,
2013-05-01 00:28:00,49.8,46.4,29.80,SSE,167,0.0,0.0,88,0.00,,BKN110,0.00,VWS V12.07,2013-05-01 05:28:00,
2013-05-01 00:30:00,49.6,46.2,29.83,SSE,167,1.0,2.0,88,0.00,,BKN110,0.00,VWS V12.07,2013-05-01 05:30:00,
2013-05-01 00:31:00,49.6,46.2,29.83,SSE,167,0.0,2.0,88,0.00,,BKN110,0.00,VWS V12.07,2013-05-01 05:31:00,
2013-05-01 00:32:00,49.6,46.2,29.83,SSE,167,0.0,2.0,88,0.00,,BKN110,0.00,VWS V12.07,2013-05-01 05:32:00,
2013-05-01 00:33:00,49.6,46.2,29.83,SSE,167,0.0,2.0,88,0.00,,BKN110,0.00,VWS V12.07,2013-05-01 05:33:00,
2013-05-01 00:35:00,49.5,46.4,29.83,SSE,167,0.0,2.0,89,0.00,,BKN110,0.00,VWS V12.07,2013-05-01 05:35:00,
2013-05-01 00:36:00,49.5,46.4,29.83,SSE,167,0.0,2.0,89,0.00,,BKN110,0.00,VWS V12.07,2013-05-01 05:36:00,
2013-05-01 00:37:00,49.5,46.4,29.83,SSE,167,0.0,2.0,89,0.00,,BKN110,0.00,VWS V12.07,2013-05-01 05:37:00,
2013-05-01 00:38:00,49.5,46.4,29.83,SSE,167,0.0,0.0,89,0.00,,OVC080,0.00,VWS V12.07,2013-05-01 05:38:00,
2013-05-01 00:41:00,49.5,46.1,29.83,SSE,167,0.0,0.0,88,0.00,,OVC080,0.00,VWS V12.07,2013-05-01 05:41:00,
2013-05-01 00:42:00,49.5,46.1,29.83,SSE,167,0.0,0.0,88,0.00,,OVC080,0.00,VWS V12.07,2013-05-01 05:42:00,
2013-05-01 00:44:00,49.4,46.0,29.83,SSE,167,0.0,0.0,88,0.00,,OVC080,0.00,VWS V12.07,2013-05-01 05:44:00,
2013-05-01 00:46:00,49.2,45.8,29.83,SSE,167,0.0,0.0,88,0.00,,OVC080,0.00,VWS V12.07,2013-05-01 05:46:00,
2013-05-01 00:47:00,49.2,45.8,29.83,SSE,167,0.0,0.0,88,0.00,,OVC080,0.00,VWS V12.07,2013-05-01 05:47:00,
2013-05-01 00:48:00,49.2,45.8,29.83,SSE,167,0.0,0.0,88,0.00,,OVC080,0.00,VWS V12.07,2013-05-01 05:48:00,
2013-05-01 00:49:00,49.1,45.7,29.83,SSE,167,0.0,0.0,88,0.00,,OVC080,0.00,VWS V12.07,2013-05-01 05:49:00,
2013-05-01 00:52:00,49.1,46.0,29.83,SSE,167,0.0,0.0,89,0.00,,OVC095,0.00,VWS V12.07,2013-05-01 05:52:00,
2013-05-01 00:53:00,49.1,46.0,29.83,SSE,167,0.0,0.0,89,0.00,,OVC095,0.00,VWS V12.07,2013-05-01 05:53:00,
2013-05-01 00:55:00,49.1,46.0,29.83,SSE,167,2.0,2.0,89,0.00,,OVC095,0.00,VWS V12.07,2013-05-01 05:55:00,
2013-05-01 00:57:00,49.1,46.0,29.83,SSE,167,1.0,2.0,89,0.00,,OVC095,0.00,VWS V12.07,2013-05-01 05:57:00,
2013-05-01 00:58:00,49.1,46.0,29.83,SSE,167,1.0,2.0,89,0.00,,OVC095,0.00,VWS V12.07,2013-05-01 05:58:00,
2013-05-01 01:00:00,49.1,46.0,29.85,SSE,167,0.0,2.0,89,0.00,,OVC095,0.00,VWS V12.07,2013-05-01 06:00:00,
2013-05-01 01:02:00,48.9,45.8,29.85,SSE,167,2.0,2.0,89,0.00,,OVC095,0.00,VWS V12.07,2013-05-01 06:02:00,
2013-05-01 01:03:00,48.6,45.5,29.85,SSE,167,1.0,2.0,89,0.00,,OVC095,0.00,VWS V12.07,2013-05-01 06:03:00,
2013-05-01 01:05:00,48.5,45.4,29.85,SSE,167,1.0,2.0,89,0.00,,OVC095,0.00,VWS V12.07,2013-05-01 06:05:00,
2013-05-01 01:07:00,48.2,45.1,29.85,SSE,167,0.0,2.0,89,0.00,,OVC095,0.00,VWS V12.07,2013-05-01 06:07:00,
2013-05-01 01:08:00,48.0,45.2,29.85,SSE,167,0.0,2.0,90,0.00,,OVC095,0.00,VWS V12.07,2013-05-01 06:08:00,
2013-05-01 01:09:00,48.0,45.2,29.85,SSE,167,0.0,2.0,90,0.00,,OVC095,0.00,VWS V12.07,2013-05-01 06:09:00,
2013-05-01 01:10:00,48.0,45.2,29.85,SSE,167,0.0,2.0,90,0.00,,OVC095,0.00,VWS V12.07,2013-05-01 06:10:00,
2013-05-01 01:12:00,48.0,45.5,29.85,SSE,167,1.0,2.0,91,0.00,,OVC095,0.00,VWS V12.07,2013-05-01 06:12:00,
2013-05-01 01:14:00,48.0,45.8,29.85,SSE,167,0.0,2.0,92,0.00,,OVC095,0.00,VWS V12.07,2013-05-01 06:14:00,
2013-05-01 01:15:00,48.0,45.8,29.85,SSE,167,0.0,2.0,92,0.00,,OVC095,0.00,VWS V12.07,2013-05-01 06:15:00,
2013-05-01 01:18:00,48.2,46.3,29.85,SSE,167,1.0,0.0,93,0.00,,OVC095,0.00,VWS V12.07,2013-05-01 06:18:00,
2013-05-01 01:19:00,48.2,46.3,29.85,SSE,167,1.0,2.0,93,0.00,,OVC095,0.00,VWS V12.07,2013-05-01 06:19:00,
2013-05-01 01:20:00,48.3,46.7,29.85,SSE,167,2.0,2.0,94,0.00,,OVC095,0.00,VWS V12.07,2013-05-01 06:20:00,
2013-05-01 01:24:00,48.3,46.7,29.85,SSE,167,1.0,3.0,94,0.00,,OVC095,0.00,VWS V12.07,2013-05-01 06:24:00,
2013-05-01 01:25:00,48.3,46.7,29.85,SSE,167,2.0,3.0,94,0.00,,OVC095,0.00,VWS V12.07,2013-05-01 06:25:00,
2013-05-01 01:26:00,48.3,46.7,29.85,SSE,167,2.0,3.0,94,0.00,,OVC095,0.00,VWS V12.07,2013-05-01 06:26:00,
2013-05-01 01:29:00,48.2,46.6,29.87,SSE,167,1.0,3.0,94,0.00,,OVC095,0.00,VWS V12.07,2013-05-01 06:29:00,
2013-05-01 01:30:00,48.2,46.6,29.87,SSE,167,2.0,3.0,94,0.00,,OVC095,0.00,VWS V12.07,2013-05-01 06:30:00,
2013-05-01 01:31:00,48.2,46.6,29.87,SSE,167,1.0,3.0,94,0.00,,OVC095,0.00,VWS V12.07,2013-05-01 06:31:00,
2013-05-01 01:32:00,48.0,46.6,29.87,SSE,167,1.0,3.0,95,0.00,,OVC095,0.00,VWS V12.07,2013-05-01 06:32:00,
2013-05-01 01:35:00,48.0,46.6,29.87,SSE,167,2.0,3.0,95,0.00,,OVC095,0.00,VWS V12.07,2013-05-01 06:35:00,
2013-05-01 01:37:00,47.9,46.8,29.87,SSE,167,2.0,3.0,96,0.00,,OVC095,0.00,VWS V12.07,2013-05-01 06:37:00,
2013-05-01 01:38:00,48.0,46.6,29.87,SSE,167,2.0,3.0,95,0.00,,OVC095,0.00,VWS V12.07,2013-05-01 06:38:00,
2013-05-01 01:40:00,47.9,46.8,29.87,SSE,167,1.0,3.0,96,0.00,,OVC095,0.00,VWS V12.07,2013-05-01 06:40:00,
2013-05-01 01:41:00,47.9,46.8,29.87,SSE,167,1.0,3.0,96,0.00,,OVC095,0.00,VWS V12.07,2013-05-01 06:41:00,
2013-05-01 01:42:00,47.9,46.8,29.87,SSE,168,2.0,3.0,96,0.00,,OVC095,0.00,VWS V12.07,2013-05-01 06:42:00,
2013-05-01 01:43:00,47.9,46.8,29.87,SSE,168,1.0,3.0,96,0.00,,OVC095,0.00,VWS V12.07,2013-05-01 06:43:00,
2013-05-01 01:45:00,47.7,46.6,29.88,SSE,168,0.0,3.0,96,0.00,,OVC095,0.00,VWS V12.07,2013-05-01 06:45:00,
2013-05-01 01:47:00,47.7,46.6,29.88,SSE,168,0.0,3.0,96,0.00,,OVC095,0.00,VWS V12.07,2013-05-01 06:47:00,
2013-05-01 01:48:00,47.7,46.6,29.88,SSE,168,0.0,3.0,96,0.00,,OVC095,0.00,VWS V12.07,2013-05-01 06:48:00,
2013-05-01 01:50:00,47.7,46.6,29.88,SSE,168,0.0,2.0,96,0.00,,OVC085,0.00,VWS V12.07,2013-05-01 06:50:00,
2013-05-01 01:51:00,47.7,46.6,29.88,SSE,168,0.0,2.0,96,0.00,,OVC085,0.00,VWS V12.07,2013-05-01 06:51:00,
2013-05-01 01:52:00,47.7,46.6,29.88,SSE,168,2.0,2.0,96,0.00,,OVC085,0.00,VWS V12.07,2013-05-01 06:52:00,
2013-05-01 01:53:00,47.7,46.6,29.88,SSE,168,1.0,2.0,96,0.00,,OVC085,0.00,VWS V12.07,2013-05-01 06:53:00,
2013-05-01 01:54:00,47.7,46.6,29.88,SSE,168,1.0,2.0,96,0.00,,OVC085,0.00,VWS V12.07,2013-05-01 06:54:00,
2013-05-01 01:55:00,47.7,46.9,29.88,SSE,168,0.0,2.0,97,0.00,,OVC085,0.00,VWS V12.07,2013-05-01 06:55:00,
2013-05-01 01:56:00,47.7,46.9,29.88,SSE,168,0.0,2.0,97,0.00,,OVC085,0.00,VWS V12.07,2013-05-01 06:56:00,
2013-05-01 01:58:00,47.7,46.9,29.88,SSE,168,0.0,2.0,97,0.00,,OVC085,0.00,VWS V12.07,2013-05-01 06:58:00,
2013-05-01 01:59:00,47.7,46.9,29.87,SSE,168,0.0,2.0,97,0.00,,OVC085,0.00,VWS V12.07,2013-05-01 06:59:00,
2013-05-01 02:01:00,47.7,46.9,29.87,SSE,168,0.0,2.0,97,0.00,,OVC085,0.00,VWS V12.07,2013-05-01 07:01:00,
2013-05-01 02:03:00,47.6,46.8,29.87,SSE,168,0.0,2.0,97,0.00,,OVC085,0.00,VWS V12.07,2013-05-01 07:03:00,
2013-05-01 02:06:00,47.6,46.8,29.87,SSE,168,0.0,2.0,97,0.00,,OVC085,0.00,VWS V12.07,2013-05-01 07:06:00,
2013-05-01 02:08:00,47.6,46.8,29.87,SSE,168,0.0,2.0,97,0.00,,OVC085,0.00,VWS V12.07,2013-05-01 07:08:00,
2013-05-01 02:09:00,47.6,46.8,29.87,SSE,168,0.0,0.0,97,0.00,,OVC085,0.00,VWS V12.07,2013-05-01 07:09:00,
2013-05-01 02:11:00,47.6,46.8,29.87,SSE,168,0.0,0.0,97,0.00,,OVC085,0.00,VWS V12.07,2013-05-01 07:11:00,
2013-05-01 02:12:00,47.6,46.8,29.87,SSE,168,0.0,0.0,97,0.00,,OVC085,0.00,VWS V12.07,2013-05-01 07:12:00,
2013-05-01 02:14:00,47.6,47.1,29.87,SSE,168,0.0,0.0,98,0.00,,OVC085,0.00,VWS V12.07,2013-05-01 07:14:00,
2013-05-01 02:15:00,47.6,47.1,29.87,SSE,168,0.0,0.0,98,0.00,,OVC085,0.00,VWS V12.07,2013-05-01 07:15:00,
2013-05-01 02:17:00,47.4,46.9,29.87,SSE,168,0.0,0.0,98,0.00,,OVC085,0.00,VWS V12.07,2013-05-01 07:17:00,
2013-05-01 02:20:00,47.4,46.9,29.87,SSE,168,0.0,2.0,98,0.00,,OVC085,0.00,VWS V12.07,2013-05-01 07:20:00,
2013-05-01 02:22:00,47.4,46.9,29.87,SSE,168,0.0,2.0,98,0.00,,OVC085,0.00,VWS V12.07,2013-05-01 07:22:00,
2013-05-01 02:23:00,47.4,46.9,29.87,SSE,168,0.0,2.0,98,0.00,,OVC085,0.00,VWS V12.07,2013-05-01 07:23:00,
2013-05-01 02:25:00,47.4,46.9,29.87,SSE,168,0.0,2.0,98,0.00,,OVC085,0.00,VWS V12.07,2013-05-01 07:25:00,
2013-05-01 02:27:00,47.3,46.8,29.87,SSE,168,0.0,2.0,98,0.00,,OVC085,0.00,VWS V12.07,2013-05-01 07:27:00,
2013-05-01 02:28:00,47.3,46.8,29.87,SSE,168,0.0,2.0,98,0.00,,OVC085,0.00,VWS V12.07,2013-05-01 07:28:00,
2013-05-01 02:30:00,47.3,46.8,29.87,SSE,168,0.0,0.0,98,0.00,,OVC085,0.00,VWS V12.07,2013-05-01 07:30:00,
2013-05-01 02:31:00,47.1,46.6,29.87,SSE,168,0.0,0.0,98,0.00,,OVC085,0.00,VWS V12.07,2013-05-01 07:31:00,
2013-05-01 02:32:00,47.1,46.6,29.87,SSE,168,0.0,0.0,98,0.00,,OVC085,0.00,VWS V12.07,2013-05-01 07:32:00,
2013-05-01 02:33:00,47.1,46.6,29.87,SSE,168,0.0,0.0,98,0.00,,OVC085,0.00,VWS V12.07,2013-05-01 07:33:00,
2013-05-01 02:35:00,47.1,46.6,29.87,SSE,168,0.0,0.0,98,0.00,,OVC085,0.00,VWS V12.07,2013-05-01 07:35:00,
2013-05-01 02:37:00,47.0,46.5,29.87,SSE,168,0.0,0.0,98,0.00,,OVC085,0.00,VWS V12.07,2013-05-01 07:37:00,
2013-05-01 02:38:00,47.0,46.5,29.87,SSE,168,0.0,0.0,98,0.00,,BKN095,0.00,VWS V12.07,2013-05-01 07:38:00,
2013-05-01 02:39:00,47.0,46.5,29.87,SSE,168,0.0,0.0,98,0.00,,BKN095,0.00,VWS V12.07,2013-05-01 07:39:00,
2013-05-01 02:41:00,47.0,46.5,29.87,SSE,168,0.0,0.0,98,0.00,,BKN095,0.00,VWS V12.07,2013-05-01 07:41:00,
2013-05-01 02:42:00,46.8,46.3,29.87,SSE,168,0.0,1.0,98,0.00,,BKN095,0.00,VWS V12.07,2013-05-01 07:42:00,
2013-05-01 02:43:00,46.8,46.3,29.87,SSE,168,0.0,1.0,98,0.00,,BKN095,0.00,VWS V12.07,2013-05-01 07:43:00,
2013-05-01 02:44:00,46.8,46.3,29.85,SSE,168,0.0,1.0,98,0.00,,BKN095,0.00,VWS V12.07,2013-05-01 07:44:00,
2013-05-01 02:46:00,46.8,46.5,29.85,SSE,168,0.0,1.0,99,0.00,,BKN095,0.00,VWS V12.07,2013-05-01 07:46:00,
2013-05-01 02:48:00,46.7,46.4,29.85,SSE,168,0.0,1.0,99,0.00,,BKN095,0.00,VWS V12.07,2013-05-01 07:48:00,
2013-05-01 02:49:00,46.7,46.4,29.85,SSE,168,0.0,0.0,99,0.00,,BKN095,0.00,VWS V12.07,2013-05-01 07:49:00,
2013-05-01 02:50:00,46.7,46.4,29.85,SSE,168,0.0,0.0,99,0.00,,BKN100,0.00,VWS V12.07,2013-05-01 07:50:00,
2013-05-01 02:51:00,46.7,46.4,29.85,SSE,168,0.0,0.0,99,0.00,,BKN100,0.00,VWS V12.07,2013-05-01 07:51:00,
2013-05-01 02:53:00,46.7,46.4,29.85,SSE,168,0.0,0.0,99,0.00,,BKN100,0.00,VWS V12.07,2013-05-01 07:53:00,
2013-05-01 02:54:00,46.7,46.4,29.85,SSE,168,0.0,0.0,99,0.00,,BKN100,0.00,VWS V12.07,2013-05-01 07:54:00,
2013-05-01 02:55:00,46.7,46.4,29.85,SSE,168,0.0,0.0,99,0.00,,BKN100,0.00,VWS V12.07,2013-05-01 07:55:00,
2013-05-01 02:57:00,46.8,46.8,29.85,SSE,168,0.0,0.0,100,0.00,,BKN100,0.00,VWS V12.07,2013-05-01 07:57:00,
2013-05-01 02:58:00,46.8,46.8,29.85,SSE,168,0.0,0.0,100,0.00,,BKN100,0.00,VWS V12.07,2013-05-01 07:58:00,
2013-05-01 02:59:00,46.8,46.8,29.87,SSE,168,0.0,0.0,100,0.00,,BKN100,0.00,VWS V12.07,2013-05-01 07:59:00,
2013-05-01 03:01:00,46.7,46.7,29.87,SSE,168,2.0,2.0,100,0.00,,BKN100,0.00,VWS V12.07,2013-05-01 08:01:00,
2013-05-01 03:02:00,46.5,46.2,29.87,SSE,168,1.0,2.0,99,0.00,,BKN100,0.00,VWS V12.07,2013-05-01 08:02:00,
2013-05-01 03:03:00,46.5,46.2,29.87,SSE,168,0.0,2.0,99,0.00,,BKN100,0.00,VWS V12.07,2013-05-01 08:03:00,
2013-05-01 03:04:00,46.5,46.2,29.87,SSE,168,0.0,2.0,99,0.00,,BKN100,0.00,VWS V12.07,2013-05-01 08:04:00,
2013-05-01 03:06:00,46.4,46.4,29.87,SSE,168,0.0,2.0,100,0.00,,BKN100,0.00,VWS V12.07,2013-05-01 08:06:00,
2013-05-01 03:07:00,46.4,46.4,29.87,SSE,168,0.0,2.0,100,0.00,,BKN100,0.00,VWS V12.07,2013-05-01 08:07:00,
2013-05-01 03:08:00,46.2,46.2,29.87,SSE,168,0.0,0.0,100,0.00,,BKN100,0.00,VWS V12.07,2013-05-01 08:08:00,
2013-05-01 03:09:00,46.2,46.2,29.87,SSE,168,0.0,0.0,100,0.00,,BKN100,0.00,VWS V12.07,2013-05-01 08:09:00,
2013-05-01 03:11:00,46.2,46.2,29.87,SSE,168,0.0,0.0,100,0.00,,BKN100,0.00,VWS V12.07,2013-05-01 08:11:00,
2013-05-01 03:12:00,46.1,46.1,29.87,SSE,168,0.0,0.0,100,0.00,,BKN100,0.00,VWS V12.07,2013-05-01 08:12:00,
2013-05-01 03:13:00,46.1,46.1,29.86,SSE,168,0.0,0.0,100,0.00,,BKN100,0.01,VWS V12.07,2013-05-01 08:13:00,
2013-05-01 03:14:00,46.1,46.1,29.86,SSE,168,0.0,0.0,100,0.00,,BKN100,0.01,VWS V12.07,2013-05-01 08:14:00,
2013-05-01 03:15:00,46.1,46.1,29.86,SSE,168,0.0,0.0,100,0.01,,BKN100,0.01,VWS V12.07,2013-05-01 08:15:00,
2013-05-01 03:17:00,46.0,46.0,29.86,SSE,168,0.0,0.0,100,0.01,,BKN100,0.01,VWS V12.07,2013-05-01 08:17:00,
2013-05-01 03:19:00,46.1,46.1,29.86,SSE,168,0.0,0.0,100,0.01,,BKN100,0.01,VWS V12.07,2013-05-01 08:19:00,
2013-05-01 03:20:00,46.1,46.1,29.86,SSE,168,0.0,0.0,100,0.01,,BKN100,0.01,VWS V12.07,2013-05-01 08:20:00,
2013-05-01 03:22:00,46.1,46.1,29.86,SSE,168,0.0,0.0,100,0.01,,BKN100,0.01,VWS V12.07,2013-05-01 08:22:00,
2013-05-01 03:24:00,46.1,46.1,29.86,SSE,168,0.0,0.0,100,0.01,,BKN100,0.01,VWS V12.07,2013-05-01 08:24:00,
2013-05-01 03:26:00,46.1,46.1,29.86,SSE,168,0.0,0.0,100,0.01,,BKN100,0.01,VWS V12.07,2013-05-01 08:26:00,
2013-05-01 03:27:00,46.1,46.1,29.86,SSE,168,0.0,0.0,100,0.01,,BKN100,0.01,VWS V12.07,2013-05-01 08:27:00,
2013-05-01 03:28:00,46.1,46.1,29.86,SSE,168,0.0,0.0,100,0.01,,BKN100,0.01,VWS V12.07,2013-05-01 08:28:00,
2013-05-01 03:29:00,46.1,46.1,29.86,SSE,168,0.0,0.0,100,0.01,,BKN100,0.01,VWS V12.07,2013-05-01 08:29:00,
2013-05-01 03:30:00,46.1,46.1,29.86,SSE,168,0.0,0.0,100,0.01,,BKN100,0.01,VWS V12.07,2013-05-01 08:30:00,
2013-05-01 03:31:00,46.1,46.1,29.86,SSE,168,0.0,0.0,100,0.01,,BKN100,0.01,VWS V12.07,2013-05-01 08:31:00,
2013-05-01 03:33:00,46.1,46.1,29.86,SSE,168,0.0,0.0,100,0.01,,BKN100,0.01,VWS V12.07,2013-05-01 08:33:00,
2013-05-01 03:34:00,46.1,46.1,29.86,SSE,168,0.0,0.0,100,0.01,,BKN100,0.01,VWS V12.07,2013-05-01 08:34:00,
2013-05-01 03:35:00,46.1,46.1,29.86,SSE,168,0.0,0.0,100,0.01,,BKN100,0.01,VWS V12.07,2013-05-01 08:35:00,
2013-05-01 03:38:00,46.1,46.1,29.86,SSE,168,0.0,0.0,100,0.01,,BKN100,0.01,VWS V12.07,2013-05-01 08:38:00,
2013-05-01 03:39:00,46.1,46.1,29.86,SSE,168,0.0,0.0,100,0.01,,-RA,0.01,VWS V12.07,2013-05-01 08:39:00,
2013-05-01 03:40:00,46.1,46.1,29.86,SSE,168,0.0,0.0,100,0.01,,-RA,0.01,VWS V12.07,2013-05-01 08:40:00,
2013-05-01 03:43:00,46.1,46.1,29.86,SSE,168,0.0,0.0,100,0.01,,-RA,0.01,VWS V12.07,2013-05-01 08:43:00,
2013-05-01 03:44:00,46.1,46.1,29.86,SSE,168,0.0,0.0,100,0.01,,-RA,0.01,VWS V12.07,2013-05-01 08:44:00,
2013-05-01 03:45:00,46.1,46.1,29.86,SSE,168,0.0,0.0,100,0.01,,-RA,0.01,VWS V12.07,2013-05-01 08:45:00,
2013-05-01 03:48:00,46.2,46.2,29.86,SSE,168,1.0,2.0,100,0.01,,-RA,0.01,VWS V12.07,2013-05-01 08:48:00,
2013-05-01 03:49:00,46.2,46.2,29.86,SSE,168,1.0,2.0,100,0.01,,-RA,0.01,VWS V12.07,2013-05-01 08:49:00,
2013-05-01 03:50:00,46.2,46.2,29.86,SSE,168,0.0,2.0,100,0.01,,OVC085,0.01,VWS V12.07,2013-05-01 08:50:00,
2013-05-01 03:51:00,46.2,46.2,29.86,SSE,168,0.0,2.0,100,0.01,,OVC085,0.01,VWS V12.07,2013-05-01 08:51:00,
2013-05-01 03:54:00,46.1,46.1,29.86,SSE,168,0.0,2.0,100,0.01,,OVC085,0.01,VWS V12.07,2013-05-01 08:54:00,
2013-05-01 03:55:00,46.1,46.1,29.86,SSE,168,0.0,2.0,100,0.01,,OVC085,0.01,VWS V12.07,2013-05-01 08:55:00,
2013-05-01 03:56:00,46.1,46.1,29.86,SSE,168,0.0,2.0,100,0.01,,OVC085,0.01,VWS V12.07,2013-05-01 08:56:00,
2013-05-01 03:59:00,46.0,46.0,29.87,SSE,168,1.0,2.0,100,0.02,,OVC085,0.02,VWS V12.07,2013-05-01 08:59:00,
2013-05-01 04:00:00,46.0,46.0,29.87,SSE,168,1.0,2.0,100,0.02,,OVC085,0.02,VWS V12.07,2013-05-01 09:00:00,
2013-05-01 04:01:00,46.0,46.0,29.87,SSE,168,0.0,2.0,100,0.02,,OVC085,0.03,VWS V12.07,2013-05-01 09:01:00,
2013-05-01 04:04:00,46.0,46.0,29.87,SSE,168,0.0,2.0,100,0.03,,OVC085,0.03,VWS V12.07,2013-05-01 09:04:00,
2013-05-01 04:05:00,46.0,46.0,29.87,SSE,168,0.0,2.0,100,0.03,,OVC085,0.03,VWS V12.07,2013-05-01 09:05:00,
2013-05-01 04:06:00,46.0,46.0,29.87,SSE,168,0.0,2.0,100,0.03,,OVC085,0.03,VWS V12.07,2013-05-01 09:06:00,
2013-05-01 04:09:00,45.8,45.8,29.87,SSE,168,0.0,1.0,100,0.04,,OVC085,0.04,VWS V12.07,2013-05-01 09:09:00,
2013-05-01 04:10:00,45.7,45.7,29.87,SSE,168,0.0,1.0,100,0.04,,OVC085,0.04,VWS V12.07,2013-05-01 09:10:00,
2013-05-01 04:11:00,45.5,45.5,29.87,SSE,168,0.0,1.0,100,0.04,,OVC085,0.04,VWS V12.07,2013-05-01 09:11:00,
2013-05-01 04:15:00,44.5,44.5,29.91,SSE,168,1.0,2.0,100,0.04,,OVC085,0.04,VWS V12.07,2013-05-01 09:15:00,
2013-05-01 04:16:00,44.3,44.3,29.91,SSE,168,1.0,2.0,100,0.03,,OVC085,0.04,VWS V12.07,2013-05-01 09:16:00,
2013-05-01 04:20:00,44.1,44.1,29.91,SSE,168,0.0,2.0,100,0.03,,OVC085,0.04,VWS V12.07,2013-05-01 09:20:00,
2013-05-01 04:21:00,43.9,43.9,29.91,SSE,168,0.0,2.0,100,0.03,,OVC085,0.04,VWS V12.07,2013-05-01 09:21:00,
2013-05-01 04:25:00,44.1,44.1,29.91,SSE,168,0.0,2.0,100,0.04,,OVC085,0.05,VWS V12.07,2013-05-01 09:25:00,
2013-05-01 04:26:00,44.2,44.2,29.91,SSE,168,0.0,2.0,100,0.04,,OVC085,0.05,VWS V12.07,2013-05-01 09:26:00,
2013-05-01 04:28:00,44.5,44.5,29.91,SSE,168,0.0,2.0,100,0.04,,OVC085,0.05,VWS V12.07,2013-05-01 09:28:00,
2013-05-01 04:30:00,44.6,44.6,29.92,SSE,168,0.0,0.0,100,0.05,,OVC085,0.06,VWS V12.07,2013-05-01 09:30:00,
2013-05-01 04:31:00,44.8,44.8,29.92,SSE,168,0.0,0.0,100,0.05,,OVC085,0.06,VWS V12.07,2013-05-01 09:31:00,
2013-05-01 04:32:00,44.9,44.9,29.92,SSE,168,0.0,0.0,100,0.05,,OVC085,0.06,VWS V12.07,2013-05-01 09:32:00,
2013-05-01 04:33:00,44.9,44.9,29.92,SSE,168,0.0,0.0,100,0.05,,OVC085,0.06,VWS V12.07,2013-05-01 09:33:00,
2013-05-01 04:36:00,45.1,45.1,29.92,SSE,168,0.0,0.0,100,0.05,,OVC085,0.06,VWS V12.07,2013-05-01 09:36:00,
2013-05-01 04:37:00,45.2,45.2,29.92,SSE,168,0.0,0.0,100,0.05,,OVC085,0.06,VWS V12.07,2013-05-01 09:37:00,
2013-05-01 04:38:00,45.4,45.4,29.92,SSE,168,1.0,1.0,100,0.05,,-RA,0.06,VWS V12.07,2013-05-01 09:38:00,
2013-05-01 04:41:00,45.7,45.7,29.92,SSE,168,0.0,2.0,100,0.06,,-RA,0.07,VWS V12.07,2013-05-01 09:41:00,
2013-05-01 04:42:00,45.7,45.7,29.92,SSE,168,0.0,2.0,100,0.06,,-RA,0.07,VWS V12.07,2013-05-01 09:42:00,
2013-05-01 04:43:00,45.7,45.7,29.92,SSE,168,0.0,2.0,100,0.06,,-RA,0.07,VWS V12.07,2013-05-01 09:43:00,
2013-05-01 04:46:00,45.7,45.7,29.93,SSE,168,0.0,2.0,100,0.06,,-RA,0.07,VWS V12.07,2013-05-01 09:46:00,
2013-05-01 04:47:00,45.7,45.7,29.93,SSE,168,0.0,2.0,100,0.06,,-RA,0.08,VWS V12.07,2013-05-01 09:47:00,
2013-05-01 04:48:00,45.7,45.7,29.93,SSE,168,0.0,2.0,100,0.07,,-RA,0.08,VWS V12.07,2013-05-01 09:48:00,
2013-05-01 04:51:00,45.7,45.7,29.93,SSE,168,0.0,2.0,100,0.07,,RA,0.08,VWS V12.07,2013-05-01 09:51:00,
2013-05-01 04:52:00,45.8,45.8,29.93,SSE,168,0.0,2.0,100,0.07,,RA,0.08,VWS V12.07,2013-05-01 09:52:00,
2013-05-01 04:53:00,45.8,45.8,29.93,SSE,168,0.0,2.0,100,0.07,,RA,0.08,VWS V12.07,2013-05-01 09:53:00,
2013-05-01 04:54:00,46.0,46.0,29.93,SSE,168,1.0,2.0,100,0.07,,RA,0.08,VWS V12.07,2013-05-01 09:54:00,
2013-05-01 04:56:00,45.8,45.8,29.93,SSE,168,0.0,2.0,100,0.07,,RA,0.08,VWS V12.07,2013-05-01 09:56:00,
2013-05-01 04:57:00,45.8,45.8,29.93,SSE,168,0.0,2.0,100,0.07,,RA,0.08,VWS V12.07,2013-05-01 09:57:00,
2013-05-01 04:58:00,45.8,45.8,29.93,SSE,168,0.0,0.0,100,0.07,,RA,0.08,VWS V12.07,2013-05-01 09:58:00,
2013-05-01 04:59:00,45.8,45.8,29.94,SSE,168,0.0,0.0,100,0.07,,RA,0.08,VWS V12.07,2013-05-01 09:59:00,
2013-05-01 05:01:00,45.7,45.7,29.94,SSE,168,0.0,0.0,100,0.07,,RA,0.08,VWS V12.07,2013-05-01 10:01:00,
2013-05-01 05:03:00,45.7,45.7,29.94,SSE,168,1.0,2.0,100,0.07,,RA,0.08,VWS V12.07,2013-05-01 10:03:00,
2013-05-01 05:04:00,45.7,45.7,29.94,SSE,168,0.0,2.0,100,0.07,,RA,0.09,VWS V12.07,2013-05-01 10:04:00,
2013-05-01 05:06:00,45.7,45.7,29.94,SSE,168,0.0,2.0,100,0.06,,RA,0.09,VWS V12.07,2013-05-01 10:06:00,
2013-05-01 05:08:00,45.5,45.5,29.94,SSE,168,1.0,2.0,100,0.06,,RA,0.09,VWS V12.07,2013-05-01 10:08:00,
2013-05-01 05:09:00,45.5,45.5,29.94,SSE,168,1.0,2.0,100,0.06,,RA,0.09,VWS V12.07,2013-05-01 10:09:00,
2013-05-01 05:11:00,45.4,45.4,29.94,SE,136,1.0,2.0,100,0.06,,RA,0.09,VWS V12.07,2013-05-01 10:11:00,
2013-05-01 05:13:00,45.4,45.4,29.94,SE,136,0.0,2.0,100,0.06,,RA,0.09,VWS V12.07,2013-05-01 10:13:00,
2013-05-01 05:14:00,45.4,45.4,29.91,SE,136,0.0,2.0,100,0.06,,RA,0.09,VWS V12.07,2013-05-01 10:14:00,
2013-05-01 05:15:00,45.4,45.4,29.91,SE,136,0.0,2.0,100,0.06,,RA,0.09,VWS V12.07,2013-05-01 10:15:00,
2013-05-01 05:17:00,45.2,45.2,29.91,SE,136,0.0,2.0,100,0.05,,RA,0.09,VWS V12.07,2013-05-01 10:17:00,
2013-05-01 05:19:00,45.4,45.4,29.91,SE,136,1.0,2.0,100,0.05,,RA,0.09,VWS V12.07,2013-05-01 10:19:00,
2013-05-01 05:20:00,45.4,45.4,29.91,SE,136,1.0,2.0,100,0.05,,RA,0.09,VWS V12.07,2013-05-01 10:20:00,
2013-05-01 05:22:00,45.4,45.4,29.91,SE,136,0.0,2.0,100,0.06,,RA,0.10,VWS V12.07,2013-05-01 10:22:00,
2013-05-01 05:24:00,45.4,45.4,29.91,SE,136,0.0,2.0,100,0.06,,RA,0.10,VWS V12.07,2013-05-01 10:24:00,
2013-05-01 05:25:00,45.4,45.4,29.91,SE,136,2.0,2.0,100,0.06,,RA,0.10,VWS V12.07,2013-05-01 10:25:00,
2013-05-01 05:27:00,45.2,45.2,29.91,SE,136,0.0,2.0,100,0.05,,RA,0.10,VWS V12.07,2013-05-01 10:27:00,
2013-05-01 05:29:00,45.1,45.1,29.94,SE,136,0.0,2.0,100,0.05,,RA,0.10,VWS V12.07,2013-05-01 10:29:00,
2013-05-01 05:30:00,45.1,45.1,29.94,SE,136,0.0,2.0,100,0.05,,RA,0.10,VWS V12.07,2013-05-01 10:30:00,
2013-05-01 05:33:00,45.1,45.1,29.94,SE,136,0.0,2.0,100,0.05,,RA,0.10,VWS V12.07,2013-05-01 10:33:00,
2013-05-01 05:35:00,45.1,45.1,29.94,SE,136,0.0,2.0,100,0.05,,RA,0.10,VWS V12.07,2013-05-01 10:35:00,
2013-05-01 05:36:00,45.1,45.1,29.94,SE,136,0.0,2.0,100,0.04,,RA,0.10,VWS V12.07,2013-05-01 10:36:00,
2013-05-01 05:38:00,45.1,45.1,29.94,SE,136,0.0,0.0,100,0.04,,-RA,0.10,VWS V12.07,2013-05-01 10:38:00,
2013-05-01 05:41:00,44.9,44.9,29.94,SE,136,0.0,0.0,100,0.04,,-RA,0.10,VWS V12.07,2013-05-01 10:41:00,
2013-05-01 05:43:00,44.9,44.9,29.94,SE,136,0.0,0.0,100,0.04,,-RA,0.10,VWS V12.07,2013-05-01 10:43:00,
2013-05-01 05:46:00,44.8,44.8,29.95,SE,136,0.0,0.0,100,0.03,,-RA,0.10,VWS V12.07,2013-05-01 10:46:00,
2013-05-01 05:49:00,44.8,44.8,29.95,SE,136,0.0,0.0,100,0.03,,-RA,0.10,VWS V12.07,2013-05-01 10:49:00,
2013-05-01 05:51:00,44.8,44.8,29.95,SE,136,0.0,0.0,100,0.03,,RA,0.10,VWS V12.07,2013-05-01 10:51:00,
2013-05-01 05:52:00,44.8,44.8,29.95,SE,136,0.0,0.0,100,0.03,,RA,0.10,VWS V12.07,2013-05-01 10:52:00,
2013-05-01 05:54:00,44.8,44.8,29.95,SE,136,0.0,0.0,100,0.03,,RA,0.10,VWS V12.07,2013-05-01 10:54:00,
2013-05-01 05:56:00,44.6,44.6,29.95,SE,136,0.0,0.0,100,0.02,,RA,0.10,VWS V12.07,2013-05-01 10:56:00,
2013-05-01 05:57:00,44.6,44.6,29.95,SE,136,0.0,0.0,100,0.02,,RA,0.10,VWS V12.07,2013-05-01 10:57:00,
2013-05-01 05:58:00,44.6,44.6,29.95,SE,136,0.0,0.0,100,0.02,,RA,0.10,VWS V12.07,2013-05-01 10:58:00,
2013-05-01 05:59:00,44.6,44.6,29.95,SE,136,0.0,0.0,100,0.02,,RA,0.10,VWS V12.07,2013-05-01 10:59:00,
2013-05-01 06:01:00,44.6,44.6,29.95,SE,136,0.0,0.0,100,0.02,,RA,0.10,VWS V12.07,2013-05-01 11:01:00,
2013-05-01 06:02:00,44.6,44.6,29.95,SE,136,0.0,0.0,100,0.02,,RA,0.10,VWS V12.07,2013-05-01 11:02:00,
2013-05-01 06:03:00,44.6,44.6,29.95,SE,136,0.0,0.0,100,0.02,,RA,0.10,VWS V12.07,2013-05-01 11:03:00,
2013-05-01 06:05:00,44.6,44.6,29.95,SE,136,0.0,0.0,100,0.02,,RA,0.10,VWS V12.07,2013-05-01 11:05:00,
2013-05-01 06:07:00,44.6,44.6,29.95,SE,136,0.0,0.0,100,0.01,,RA,0.10,VWS V12.07,2013-05-01 11:07:00,
2013-05-01 06:08:00,44.6,44.6,29.95,SE,136,0.0,0.0,100,0.01,,RA,0.10,VWS V12.07,2013-05-01 11:08:00,
2013-05-01 06:10:00,44.6,44.6,29.95,SE,136,0.0,0.0,100,0.01,,RA,0.10,VWS V12.07,2013-05-01 11:10:00,
2013-05-01 06:12:00,44.6,44.6,29.95,SE,136,0.0,0.0,100,0.01,,RA,0.10,VWS V12.07,2013-05-01 11:12:00,
2013-05-01 06:13:00,44.6,44.6,29.95,SE,136,0.0,0.0,100,0.01,,RA,0.10,VWS V12.07,2013-05-01 11:13:00,
2013-05-01 06:15:00,44.5,44.5,29.94,SE,136,0.0,0.0,100,0.01,,RA,0.10,VWS V12.07,2013-05-01 11:15:00,
2013-05-01 06:17:00,44.5,44.5,29.94,SE,136,0.0,0.0,100,0.01,,RA,0.10,VWS V12.07,2013-05-01 11:17:00,
2013-05-01 06:18:00,44.5,44.5,29.94,SE,136,0.0,0.0,100,0.01,,RA,0.10,VWS V12.07,2013-05-01 11:18:00,
2013-05-01 06:20:00,44.5,44.5,29.94,SE,136,0.0,0.0,100,0.01,,RA,0.10,VWS V12.07,2013-05-01 11:20:00,
2013-05-01 06:22:00,44.3,44.3,29.94,SE,136,0.0,0.0,100,0.01,,RA,0.10,VWS V12.07,2013-05-01 11:22:00,
2013-05-01 06:23:00,44.3,44.3,29.94,SE,136,0.0,0.0,100,0.01,,RA,0.10,VWS V12.07,2013-05-01 11:23:00,
2013-05-01 06:25:00,44.2,44.2,29.94,SE,136,0.0,0.0,100,0.01,,RA,0.10,VWS V12.07,2013-05-01 11:25:00,
2013-05-01 06:28:00,44.2,44.2,29.94,SE,136,0.0,0.0,100,0.00,,RA,0.10,VWS V12.07,2013-05-01 11:28:00,
2013-05-01 06:29:00,44.2,44.2,29.94,SE,136,0.0,0.0,100,0.00,,RA,0.10,VWS V12.07,2013-05-01 11:29:00,
2013-05-01 06:30:00,44.2,44.2,29.94,SE,136,0.0,0.0,100,0.00,,RA,0.10,VWS V12.07,2013-05-01 11:30:00,
2013-05-01 06:33:00,44.2,44.2,29.94,SE,136,0.0,0.0,100,0.00,,RA,0.10,VWS V12.07,2013-05-01 11:33:00,
2013-05-01 06:34:00,44.2,44.2,29.94,SE,136,0.0,0.0,100,0.00,,RA,0.10,VWS V12.07,2013-05-01 11:34:00,
2013-05-01 06:37:00,44.3,44.3,29.94,SE,136,0.0,0.0,100,0.00,,RA,0.10,VWS V12.07,2013-05-01 11:37:00,
2013-05-01 06:38:00,44.3,44.3,29.94,SE,136,0.0,0.0,100,0.00,,OVC060,0.10,VWS V12.07,2013-05-01 11:38:00,
2013-05-01 06:39:00,44.3,44.3,29.94,SE,136,0.0,0.0,100,0.00,,OVC060,0.10,VWS V12.07,2013-05-01 11:39:00,
2013-05-01 06:40:00,44.3,44.3,29.94,SE,136,0.0,0.0,100,0.00,,OVC060,0.10,VWS V12.07,2013-05-01 11:40:00,
2013-05-01 06:42:00,44.3,44.3,29.94,SE,136,0.0,0.0,100,0.00,,OVC060,0.10,VWS V12.07,2013-05-01 11:42:00,
2013-05-01 06:44:00,44.3,44.3,29.96,SE,136,0.0,0.0,100,0.00,,OVC060,0.10,VWS V12.07,2013-05-01 11:44:00,
2013-05-01 06:45:00,44.3,44.3,29.96,SE,136,0.0,0.0,100,0.00,,OVC060,0.10,VWS V12.07,2013-05-01 11:45:00,
2013-05-01 06:47:00,44.3,44.3,29.96,SE,136,0.0,0.0,100,0.00,,OVC060,0.10,VWS V12.07,2013-05-01 11:47:00,
2013-05-01 06:49:00,44.2,44.2,29.96,SE,136,0.0,0.0,100,0.00,,OVC060,0.10,VWS V12.07,2013-05-01 11:49:00,
2013-05-01 06:50:00,44.2,44.2,29.96,SE,136,0.0,0.0,100,0.00,,OVC060,0.10,VWS V12.07,2013-05-01 11:50:00,
2013-05-01 06:52:00,44.2,44.2,29.96,SE,136,0.0,0.0,100,0.00,,OVC060,0.10,VWS V12.07,2013-05-01 11:52:00,
2013-05-01 06:54:00,44.2,44.2,29.96,SE,136,0.0,0.0,100,0.00,,OVC060,0.10,VWS V12.07,2013-05-01 11:54:00,
2013-05-01 06:55:00,44.2,44.2,29.96,SE,136,0.0,0.0,100,0.00,,OVC060,0.10,VWS V12.07,2013-05-01 11:55:00,
2013-05-01 06:56:00,44.2,44.2,29.96,SE,136,0.0,0.0,100,0.00,,OVC060,0.10,VWS V12.07,2013-05-01 11:56:00,
2013-05-01 06:57:00,44.2,44.2,29.96,SE,136,0.0,0.0,100,0.00,,OVC060,0.10,VWS V12.07,2013-05-01 11:57:00,
2013-05-01 06:59:00,44.1,44.1,29.98,SE,136,0.0,0.0,100,0.00,,OVC060,0.10,VWS V12.07,2013-05-01 11:59:00,
2013-05-01 07:00:00,44.1,44.1,29.98,SE,136,0.0,0.0,100,0.00,,OVC060,0.10,VWS V12.07,2013-05-01 12:00:00,
2013-05-01 07:01:00,44.1,44.1,29.98,SE,136,0.0,0.0,100,0.00,,OVC060,0.10,VWS V12.07,2013-05-01 12:01:00,
2013-05-01 07:03:00,44.1,44.1,29.98,SE,136,0.0,0.0,100,0.00,,OVC060,0.10,VWS V12.07,2013-05-01 12:03:00,
2013-05-01 07:05:00,44.1,44.1,29.98,SE,136,0.0,0.0,100,0.00,,OVC060,0.10,VWS V12.07,2013-05-01 12:05:00,
2013-05-01 07:06:00,43.9,43.9,29.98,SE,136,0.0,0.0,100,0.00,,OVC060,0.10,VWS V12.07,2013-05-01 12:06:00,
2013-05-01 07:08:00,43.9,43.9,29.98,SE,136,0.0,0.0,100,0.00,,OVC060,0.10,VWS V12.07,2013-05-01 12:08:00,
2013-05-01 07:10:00,43.9,43.9,29.98,SE,136,0.0,0.0,100,0.00,,OVC060,0.10,VWS V12.07,2013-05-01 12:10:00,
2013-05-01 07:12:00,43.9,43.9,29.98,SE,136,0.0,0.0,100,0.00,,OVC060,0.10,VWS V12.07,2013-05-01 12:12:00,
2013-05-01 07:14:00,43.9,43.9,29.98,SE,136,0.0,0.0,100,0.00,,OVC060,0.10,VWS V12.07,2013-05-01 12:14:00,
2013-05-01 07:15:00,43.9,43.9,29.98,SE,136,0.0,0.0,100,0.00,,OVC060,0.10,VWS V12.07,2013-05-01 12:15:00,
2013-05-01 07:17:00,43.9,43.9,29.98,SE,136,0.0,0.0,100,0.00,,OVC060,0.10,VWS V12.07,2013-05-01 12:17:00,
2013-05-01 07:20:00,43.9,43.9,29.98,SE,136,0.0,0.0,100,0.00,,OVC060,0.10,VWS V12.07,2013-05-01 12:20:00,
2013-05-01 07:21:00,43.9,43.9,29.98,SE,136,0.0,0.0,100,0.00,,OVC060,0.10,VWS V12.07,2013-05-01 12:21:00,
2013-05-01 07:23:00,43.9,43.9,29.98,SE,136,0.0,0.0,100,0.00,,OVC060,0.10,VWS V12.07,2013-05-01 12:23:00,
2013-05-01 07:25:00,43.9,43.9,29.98,SE,136,0.0,0.0,100,0.00,,OVC060,0.10,VWS V12.07,2013-05-01 12:25:00,
2013-05-01 07:26:00,44.1,44.1,29.98,SE,136,0.0,0.0,100,0.00,,OVC060,0.10,VWS V12.07,2013-05-01 12:26:00,
2013-05-01 07:28:00,44.1,44.1,29.98,SE,136,0.0,0.0,100,0.00,,OVC060,0.10,VWS V12.07,2013-05-01 12:28:00,
2013-05-01 07:30:00,44.1,44.1,30.00,SE,136,0.0,0.0,100,0.00,,OVC060,0.10,VWS V12.07,2013-05-01 12:30:00,
2013-05-01 07:31:00,44.2,44.2,30.00,SE,136,0.0,0.0,100,0.00,,OVC060,0.10,VWS V12.07,2013-05-01 12:31:00,
2013-05-01 07:33:00,44.2,44.2,30.00,SE,136,0.0,0.0,100,0.00,,OVC060,0.10,VWS V12.07,2013-05-01 12:33:00,
2013-05-01 07:36:00,44.2,44.2,30.00,SE,136,0.0,1.0,100,0.00,,OVC060,0.10,VWS V12.07,2013-05-01 12:36:00,
2013-05-01 07:38:00,44.2,44.2,30.00,SE,136,0.0,1.0,100,0.00,,OVC060,0.10,VWS V12.07,2013-05-01 12:38:00,
2013-05-01 07:41:00,44.2,44.2,30.00,SE,136,0.0,1.0,100,0.00,,OVC060,0.10,VWS V12.07,2013-05-01 12:41:00,
2013-05-01 07:42:00,44.2,44.2,30.00,SE,136,0.0,1.0,100,0.00,,OVC060,0.10,VWS V12.07,2013-05-01 12:42:00,
2013-05-01 07:43:00,44.2,44.2,30.01,SE,136,1.0,2.0,100,0.00,,OVC060,0.10,VWS V12.07,2013-05-01 12:43:00,
2013-05-01 07:46:00,44.2,44.2,30.01,SE,136,0.0,2.0,100,0.00,,OVC060,0.10,VWS V12.07,2013-05-01 12:46:00,
2013-05-01 07:48:00,44.2,44.2,30.01,SE,136,0.0,2.0,100,0.00,,OVC060,0.10,VWS V12.07,2013-05-01 12:48:00,
2013-05-01 07:49:00,44.2,44.2,30.01,SE,136,0.0,0.0,100,0.00,,OVC060,0.10,VWS V12.07,2013-05-01 12:49:00,
2013-05-01 07:51:00,44.2,44.2,30.01,SE,136,0.0,0.0,100,0.00,,OVC060,0.10,VWS V12.07,2013-05-01 12:51:00,
2013-05-01 07:52:00,44.3,44.3,30.01,SE,136,0.0,0.0,100,0.00,,OVC060,0.10,VWS V12.07,2013-05-01 12:52:00,
2013-05-01 07:53:00,44.3,44.3,30.01,SE,136,0.0,0.0,100,0.00,,OVC060,0.10,VWS V12.07,2013-05-01 12:53:00,
2013-05-01 07:54:00,44.3,44.3,30.01,SE,136,0.0,0.0,100,0.00,,OVC060,0.10,VWS V12.07,2013-05-01 12:54:00,
2013-05-01 07:56:00,44.2,44.2,30.01,SE,136,0.0,0.0,100,0.00,,OVC060,0.10,VWS V12.07,2013-05-01 12:56:00,
2013-05-01 07:57:00,44.2,44.2,30.01,SE,136,0.0,0.0,100,0.00,,OVC060,0.10,VWS V12.07,2013-05-01 12:57:00,
2013-05-01 07:58:00,44.2,44.2,30.01,SE,136,0.0,0.0,100,0.00,,OVC060,0.10,VWS V12.07,2013-05-01 12:58:00,
2013-05-01 07:59:00,44.2,44.2,30.04,SE,136,0.0,0.0,100,0.00,,OVC060,0.10,VWS V12.07,2013-05-01 12:59:00,
2013-05-01 08:00:00,44.2,44.2,30.04,SE,136,0.0,0.0,100,0.00,,OVC060,0.10,VWS V12.07,2013-05-01 13:00:00,
2013-05-01 08:02:00,44.2,44.2,30.04,SE,136,0.0,0.0,100,0.00,,OVC060,0.10,VWS V12.07,2013-05-01 13:02:00,
2013-05-01 08:03:00,44.3,44.3,30.04,SE,136,0.0,0.0,100,0.00,,OVC060,0.10,VWS V12.07,2013-05-01 13:03:00,
2013-05-01 08:05:00,44.3,44.3,30.04,SE,136,0.0,0.0,100,0.00,,OVC060,0.10,VWS V12.07,2013-05-01 13:05:00,
2013-05-01 08:06:00,44.3,44.3,30.04,SE,136,0.0,0.0,100,0.00,,OVC060,0.10,VWS V12.07,2013-05-01 13:06:00,
2013-05-01 08:07:00,44.3,44.3,30.04,SE,136,0.0,0.0,100,0.00,,OVC060,0.10,VWS V12.07,2013-05-01 13:07:00,
2013-05-01 08:08:00,44.3,44.3,30.04,SE,136,0.0,0.0,100,0.00,,OVC060,0.10,VWS V12.07,2013-05-01 13:08:00,
2013-05-01 08:09:00,44.3,44.3,30.04,SE,136,1.0,1.0,100,0.00,,OVC060,0.10,VWS V12.07,2013-05-01 13:09:00,
2013-05-01 08:10:00,44.3,44.3,30.04,SE,136,0.0,2.0,100,0.00,,OVC060,0.10,VWS V12.07,2013-05-01 13:10:00,
2013-05-01 08:11:00,44.2,44.2,30.04,SE,136,0.0,2.0,100,0.00,,OVC060,0.10,VWS V12.07,2013-05-01 13:11:00,
2013-05-01 08:13:00,44.1,44.1,30.04,SE,136,1.0,2.0,100,0.00,,OVC060,0.10,VWS V12.07,2013-05-01 13:13:00,
2013-05-01 08:14:00,43.9,43.9,30.05,SE,136,0.0,2.0,100,0.00,,OVC060,0.10,VWS V12.07,2013-05-01 13:14:00,
2013-05-01 08:16:00,43.8,43.8,30.05,SE,136,1.0,2.0,100,0.00,,OVC060,0.10,VWS V12.07,2013-05-01 13:16:00,
2013-05-01 08:18:00,43.1,43.1,30.05,SE,136,0.0,2.0,100,0.00,,OVC060,0.10,VWS V12.07,2013-05-01 13:18:00,
2013-05-01 08:19:00,43.1,43.1,30.05,SE,136,0.0,2.0,100,0.00,,OVC060,0.10,VWS V12.07,2013-05-01 13:19:00,
2013-05-01 08:20:00,42.9,42.9,30.05,SE,136,0.0,2.0,100,0.00,,OVC060,0.10,VWS V12.07,2013-05-01 13:20:00,
2013-05-01 08:21:00,42.8,42.8,30.05,SE,136,0.0,2.0,100,0.00,,OVC060,0.10,VWS V12.07,2013-05-01 13:21:00,
2013-05-01 08:23:00,42.5,42.5,30.05,SE,136,0.0,2.0,100,0.00,,OVC060,0.10,VWS V12.07,2013-05-01 13:23:00,
2013-05-01 08:24:00,42.5,42.5,30.05,SE,136,0.0,2.0,100,0.00,,OVC060,0.10,VWS V12.07,2013-05-01 13:24:00,
2013-05-01 08:25:00,42.3,42.3,30.05,SE,136,0.0,2.0,100,0.00,,OVC060,0.10,VWS V12.07,2013-05-01 13:25:00,
2013-05-01 08:26:00,42.3,42.3,30.05,SE,136,0.0,2.0,100,0.00,,OVC060,0.10,VWS V12.07,2013-05-01 13:26:00,
2013-05-01 08:27:00,42.3,42.3,30.05,SE,136,0.0,2.0,100,0.00,,OVC060,0.10,VWS V12.07,2013-05-01 13:27:00,
2013-05-01 08:29:00,42.3,42.3,30.06,SE,136,0.0,0.0,100,0.00,,OVC060,0.10,VWS V12.07,2013-05-01 13:29:00,
2013-05-01 08:31:00,42.5,42.5,30.06,SE,136,0.0,0.0,100,0.00,,OVC060,0.10,VWS V12.07,2013-05-01 13:31:00,
2013-05-01 08:32:00,42.5,42.5,30.06,SE,136,0.0,0.0,100,0.00,,OVC060,0.10,VWS V12.07,2013-05-01 13:32:00,
2013-05-01 08:34:00,42.6,42.6,30.06,SE,136,0.0,0.0,100,0.00,,OVC060,0.10,VWS V12.07,2013-05-01 13:34:00,
2013-05-01 08:36:00,42.9,42.9,30.06,SE,136,0.0,0.0,100,0.00,,OVC060,0.10,VWS V12.07,2013-05-01 13:36:00,
2013-05-01 08:37:00,42.9,42.9,30.06,SE,136,0.0,0.0,100,0.00,,OVC060,0.10,VWS V12.07,2013-05-01 13:37:00,
2013-05-01 08:39:00,43.2,43.2,30.06,SE,136,0.0,0.0,100,0.00,,OVC060,0.10,VWS V12.07,2013-05-01 13:39:00,
2013-05-01 08:40:00,43.2,43.2,30.06,SE,136,0.0,0.0,100,0.00,,OVC060,0.10,VWS V12.07,2013-05-01 13:40:00,
2013-05-01 08:41:00,43.3,43.3,30.06,SE,136,0.0,0.0,100,0.00,,OVC060,0.10,VWS V12.07,2013-05-01 13:41:00,
2013-05-01 08:42:00,43.3,43.3,30.06,SE,136,0.0,0.0,100,0.00,,OVC060,0.10,VWS V12.07,2013-05-01 13:42:00,
2013-05-01 08:44:00,43.5,43.5,30.07,SE,136,0.0,0.0,100,0.00,,OVC060,0.10,VWS V12.07,2013-05-01 13:44:00,
2013-05-01 08:45:00,43.5,43.5,30.07,SE,136,0.0,0.0,100,0.00,,OVC060,0.10,VWS V12.07,2013-05-01 13:45:00,
2013-05-01 08:47:00,43.6,43.6,30.07,SE,136,0.0,0.0,100,0.00,,OVC060,0.10,VWS V12.07,2013-05-01 13:47:00,
2013-05-01 08:48:00,43.8,43.8,30.07,SE,136,0.0,0.0,100,0.00,,OVC060,0.10,VWS V12.07,2013-05-01 13:48:00,
2013-05-01 08:50:00,43.8,43.8,30.07,SE,136,0.0,0.0,100,0.00,,OVC060,0.10,VWS V12.07,2013-05-01 13:50:00,
2013-05-01 08:51:00,43.8,43.8,30.07,SE,136,0.0,0.0,100,0.00,,OVC060,0.10,VWS V12.07,2013-05-01 13:51:00,
2013-05-01 08:53:00,43.8,43.8,30.07,SE,136,0.0,0.0,100,0.00,,OVC060,0.10,VWS V12.07,2013-05-01 13:53:00,
2013-05-01 08:55:00,43.9,43.9,30.07,SE,136,0.0,0.0,100,0.00,,OVC060,0.10,VWS V12.07,2013-05-01 13:55:00,
2013-05-01 08:56:00,43.9,43.9,30.07,SE,136,0.0,0.0,100,0.00,,OVC060,0.10,VWS V12.07,2013-05-01 13:56:00,
2013-05-01 08:58:00,43.9,43.9,30.07,SE,136,0.0,0.0,100,0.00,,OVC060,0.10,VWS V12.07,2013-05-01 13:58:00,
2013-05-01 08:59:00,44.1,44.1,30.09,SE,136,0.0,0.0,100,0.00,,OVC060,0.10,VWS V12.07,2013-05-01 13:59:00,
2013-05-01 09:00:00,44.1,44.1,30.09,SE,136,0.0,0.0,100,0.00,,OVC060,0.10,VWS V12.07,2013-05-01 14:00:00,
2013-05-01 09:01:00,44.1,44.1,30.09,SE,136,0.0,0.0,100,0.00,,OVC060,0.10,VWS V12.07,2013-05-01 14:01:00,
2013-05-01 09:03:00,44.2,44.2,30.09,SE,136,0.0,0.0,100,0.00,,OVC060,0.10,VWS V12.07,2013-05-01 14:03:00,
2013-05-01 09:04:00,44.2,44.2,30.09,SE,136,0.0,0.0,100,0.00,,OVC060,0.10,VWS V12.07,2013-05-01 14:04:00,
2013-05-01 09:06:00,44.2,44.2,30.09,SE,136,0.0,0.0,100,0.00,,OVC060,0.10,VWS V12.07,2013-05-01 14:06:00,
2013-05-01 09:09:00,44.3,44.3,30.09,SE,136,0.0,0.0,100,0.00,,OVC060,0.10,VWS V12.07,2013-05-01 14:09:00,
2013-05-01 09:11:00,44.5,44.5,30.09,SE,136,0.0,0.0,100,0.00,,OVC060,0.10,VWS V12.07,2013-05-01 14:11:00,
2013-05-01 09:12:00,44.5,44.5,30.09,SE,136,0.0,0.0,100,0.00,,OVC060,0.10,VWS V12.07,2013-05-01 14:12:00,
2013-05-01 09:14:00,44.5,44.5,30.10,SE,136,0.0,0.0,100,0.00,,OVC060,0.10,VWS V12.07,2013-05-01 14:14:00,
2013-05-01 09:16:00,44.5,44.5,30.10,SE,136,0.0,0.0,100,0.00,,OVC060,0.10,VWS V12.07,2013-05-01 14:16:00,
2013-05-01 09:17:00,44.5,44.5,30.10,SE,136,0.0,0.0,100,0.00,,OVC060,0.10,VWS V12.07,2013-05-01 14:17:00,
2013-05-01 09:19:00,44.5,44.5,30.10,SE,136,0.0,2.0,100,0.00,,OVC060,0.10,VWS V12.07,2013-05-01 14:19:00,
2013-05-01 09:21:00,44.3,44.3,30.10,ENE,72,1.0,3.0,100,0.00,,OVC060,0.10,VWS V12.07,2013-05-01 14:21:00,
2013-05-01 09:22:00,44.2,44.2,30.10,ENE,72,1.0,3.0,100,0.00,,OVC060,0.10,VWS V12.07,2013-05-01 14:22:00,
2013-05-01 09:23:00,44.1,44.1,30.10,ENE,72,0.0,3.0,100,0.00,,OVC060,0.10,VWS V12.07,2013-05-01 14:23:00,
2013-05-01 09:24:00,44.1,44.1,30.10,ENE,72,0.0,3.0,100,0.00,,OVC060,0.10,VWS V12.07,2013-05-01 14:24:00,
2013-05-01 09:26:00,43.9,43.9,30.10,ENE,72,1.0,3.0,100,0.00,,OVC060,0.10,VWS V12.07,2013-05-01 14:26:00,
2013-05-01 09:28:00,43.8,43.8,30.10,ENE,72,0.0,3.0,100,0.00,,OVC060,0.10,VWS V12.07,2013-05-01 14:28:00,
2013-05-01 09:29:00,43.6,43.6,30.11,ENE,72,0.0,2.0,100,0.00,,OVC060,0.10,VWS V12.07,2013-05-01 14:29:00,
2013-05-01 09:31:00,43.5,43.5,30.11,ENE,72,0.0,2.0,100,0.00,,OVC060,0.10,VWS V12.07,2013-05-01 14:31:00,
2013-05-01 09:32:00,43.5,43.5,30.11,ENE,72,0.0,2.0,100,0.00,,OVC060,0.10,VWS V12.07,2013-05-01 14:32:00,
2013-05-01 09:33:00,43.5,43.5,30.11,ENE,72,0.0,2.0,100,0.00,,OVC060,0.10,VWS V12.07,2013-05-01 14:33:00,
2013-05-01 09:34:00,43.3,43.3,30.11,ENE,72,1.0,2.0,100,0.00,,OVC060,0.10,VWS V12.07,2013-05-01 14:34:00,
2013-05-01 09:35:00,43.3,43.3,30.11,ENE,72,2.0,2.0,100,0.00,,OVC060,0.10,VWS V12.07,2013-05-01 14:35:00,
2013-05-01 09:36:00,43.3,43.3,30.11,NNW,343,0.0,3.0,100,0.00,,OVC060,0.10,VWS V12.07,2013-05-01 14:36:00,
2013-05-01 09:38:00,43.3,43.3,30.11,West,273,2.0,4.0,100,0.00,,OVC060,0.10,VWS V12.07,2013-05-01 14:38:00,
2013-05-01 09:39:00,43.2,43.2,30.11,WNW,302,1.0,4.0,100,0.00,,OVC060,0.10,VWS V12.07,2013-05-01 14:39:00,
2013-05-01 09:40:00,43.3,43.3,30.11,North,1,2.0,4.0,100,0.00,,OVC060,0.10,VWS V12.07,2013-05-01 14:40:00,
2013-05-01 09:41:00,43.2,43.2,30.11,North,1,1.0,4.0,100,0.00,,OVC060,0.10,VWS V12.07,2013-05-01 14:41:00,
2013-05-01 09:43:00,43.2,43.2,30.11,North,1,0.0,4.0,100,0.00,,OVC060,0.10,VWS V12.07,2013-05-01 14:43:00,
2013-05-01 09:44:00,43.2,43.2,30.11,North,6,0.0,4.0,100,0.00,,OVC060,0.10,VWS V12.07,2013-05-01 14:44:00,
2013-05-01 09:45:00,43.2,43.2,30.11,North,6,0.0,4.0,100,0.00,,OVC060,0.10,VWS V12.07,2013-05-01 14:45:00,
2013-05-01 09:46:00,43.3,43.3,30.11,North,0,0.0,4.0,100,0.00,,OVC060,0.10,VWS V12.07,2013-05-01 14:46:00,
2013-05-01 09:47:00,43.3,43.3,30.11,North,0,0.0,4.0,100,0.00,,OVC060,0.10,VWS V12.07,2013-05-01 14:47:00,
2013-05-01 09:48:00,43.2,43.2,30.11,North,6,0.0,4.0,100,0.00,,OVC060,0.10,VWS V12.07,2013-05-01 14:48:00,
2013-05-01 09:50:00,43.3,43.3,30.11,North,0,0.0,3.0,100,0.00,,OVC060,0.10,VWS V12.07,2013-05-01 14:50:00,
2013-05-01 09:51:00,43.3,43.3,30.11,North,0,0.0,3.0,100,0.00,,OVC060,0.10,VWS V12.07,2013-05-01 14:51:00,
2013-05-01 09:53:00,43.5,43.5,30.11,North,0,0.0,3.0,100,0.00,,OVC060,0.10,VWS V12.07,2013-05-01 14:53:00,
2013-05-01 09:55:00,43.6,43.6,30.11,North,0,0.0,3.0,100,0.00,,OVC060,0.10,VWS V12.07,2013-05-01 14:55:00,
2013-05-01 09:56:00,43.6,43.6,30.11,North,0,0.0,3.0,100,0.00,,OVC060,0.10,VWS V12.07,2013-05-01 14:56:00,
2013-05-01 09:58:00,43.6,43.6,30.11,North,0,0.0,3.0,100,0.00,,OVC060,0.10,VWS V12.07,2013-05-01 14:58:00,
2013-05-01 09:59:00,43.6,43.6,30.12,North,0,0.0,1.0,100,0.00,,OVC060,0.10,VWS V12.07,2013-05-01 14:59:00,
2013-05-01 10:00:00,43.6,43.6,30.12,North,0,1.0,1.0,100,0.00,,OVC060,0.10,VWS V12.07,2013-05-01 15:00:00,
2013-05-01 10:02:00,43.6,43.6,30.12,NNE,15,1.0,5.0,100,0.00,,OVC060,0.10,VWS V12.07,2013-05-01 15:02:00,
2013-05-01 10:03:00,43.6,43.6,30.12,NNE,15,0.0,5.0,100,0.00,,OVC060,0.10,VWS V12.07,2013-05-01 15:03:00,
2013-05-01 10:05:00,43.5,43.2,30.12,NNE,18,3.0,5.0,99,0.00,,OVC060,0.10,VWS V12.07,2013-05-01 15:05:00,
2013-05-01 10:06:00,43.5,43.2,30.12,NNE,18,3.0,5.0,99,0.00,,OVC060,0.10,VWS V12.07,2013-05-01 15:06:00,
2013-05-01 10:08:00,43.3,42.8,30.12,NNW,342,1.0,9.0,98,0.00,,OVC060,0.10,VWS V12.07,2013-05-01 15:08:00,
2013-05-01 10:11:00,43.2,42.7,30.12,NNE,30,0.0,9.0,98,0.00,,OVC060,0.10,VWS V12.07,2013-05-01 15:11:00,
2013-05-01 10:12:00,43.2,42.7,30.12,NNE,27,1.0,9.0,98,0.00,,OVC060,0.10,VWS V12.07,2013-05-01 15:12:00,
2013-05-01 10:13:00,43.3,42.8,30.12,North,358,2.0,9.0,98,0.00,,OVC060,0.10,VWS V12.07,2013-05-01 15:13:00,
2013-05-01 10:16:00,43.3,42.8,30.14,North,355,2.0,9.0,98,0.00,,OVC060,0.10,VWS V12.07,2013-05-01 15:16:00,
2013-05-01 10:17:00,43.3,42.8,30.14,NW,309,3.0,9.0,98,0.00,,OVC060,0.10,VWS V12.07,2013-05-01 15:17:00,
2013-05-01 10:18:00,43.3,42.8,30.14,West,280,0.0,9.0,98,0.00,,OVC060,0.10,VWS V12.07,2013-05-01 15:18:00,
2013-05-01 10:19:00,43.2,42.4,30.14,NW,307,1.0,5.0,97,0.00,,OVC060,0.10,VWS V12.07,2013-05-01 15:19:00,
2013-05-01 10:21:00,43.1,42.3,30.14,NNW,329,0.0,5.0,97,0.00,,OVC060,0.10,VWS V12.07,2013-05-01 15:21:00,
2013-05-01 10:22:00,43.1,42.3,30.14,NNW,329,0.0,5.0,97,0.00,,OVC060,0.10,VWS V12.07,2013-05-01 15:22:00,
2013-05-01 10:23:00,43.1,42.3,30.14,NW,315,1.0,5.0,97,0.00,,OVC060,0.10,VWS V12.07,2013-05-01 15:23:00,
2013-05-01 10:24:00,43.1,42.6,30.14,NW,316,2.0,5.0,98,0.00,,OVC060,0.10,VWS V12.07,2013-05-01 15:24:00,
2013-05-01 10:27:00,42.9,42.1,30.14,NNE,17,2.0,5.0,97,0.00,,OVC060,0.10,VWS V12.07,2013-05-01 15:27:00,
2013-05-01 10:28:00,42.9,42.1,30.14,West,276,0.0,4.0,97,0.00,,OVC060,0.10,VWS V12.07,2013-05-01 15:28:00,
2013-05-01 10:29:00,42.8,41.7,30.14,NE,36,0.0,4.0,96,0.00,,OVC060,0.10,VWS V12.07,2013-05-01 15:29:00,
2013-05-01 10:32:00,42.8,42.0,30.14,NE,36,0.0,4.0,97,0.00,,OVC060,0.10,VWS V12.07,2013-05-01 15:32:00,
2013-05-01 10:34:00,42.9,42.1,30.14,NE,36,2.0,4.0,97,0.00,,OVC060,0.10,VWS V12.07,2013-05-01 15:34:00,
2013-05-01 10:35:00,42.9,42.1,30.14,NNE,32,1.0,4.0,97,0.00,,OVC060,0.10,VWS V12.07,2013-05-01 15:35:00,
2013-05-01 10:37:00,42.9,42.1,30.14,NNE,32,2.0,4.0,97,0.00,,OVC060,0.10,VWS V12.07,2013-05-01 15:37:00,
2013-05-01 10:38:00,42.9,42.1,30.14,NNE,32,0.0,3.0,97,0.00,,OVC015,0.10,VWS V12.07,2013-05-01 15:38:00,
2013-05-01 10:39:00,42.9,42.1,30.14,NNE,32,0.0,3.0,97,0.00,,OVC015,0.10,VWS V12.07,2013-05-01 15:39:00,
2013-05-01 10:40:00,42.9,42.1,30.14,NNE,32,2.0,3.0,97,0.00,,OVC015,0.10,VWS V12.07,2013-05-01 15:40:00,
2013-05-01 10:42:00,42.9,41.8,30.14,North,0,1.0,3.0,96,0.00,,OVC015,0.10,VWS V12.07,2013-05-01 15:42:00,
2013-05-01 10:43:00,42.9,41.8,30.14,NNE,28,4.0,4.0,96,0.00,,OVC015,0.10,VWS V12.07,2013-05-01 15:43:00,
2013-05-01 10:45:00,42.9,41.8,30.14,NNE,25,0.0,4.0,96,0.00,,OVC015,0.10,VWS V12.07,2013-05-01 15:45:00,
2013-05-01 10:48:00,42.9,41.8,30.14,NNE,25,0.0,4.0,96,0.00,,OVC015,0.10,VWS V12.07,2013-05-01 15:48:00,
2013-05-01 10:50:00,42.9,41.8,30.14,NE,37,0.0,2.0,96,0.00,,OVC024,0.10,VWS V12.07,2013-05-01 15:50:00,
2013-05-01 10:51:00,42.9,41.8,30.14,NE,37,0.0,2.0,96,0.00,,OVC024,0.10,VWS V12.07,2013-05-01 15:51:00,
2013-05-01 10:53:00,42.8,41.5,30.14,North,353,1.0,4.0,95,0.00,,OVC024,0.10,VWS V12.07,2013-05-01 15:53:00,
2013-05-01 10:54:00,42.6,41.0,30.14,North,353,0.0,4.0,94,0.00,,OVC024,0.10,VWS V12.07,2013-05-01 15:54:00,
2013-05-01 10:55:00,42.6,41.0,30.14,North,0,3.0,4.0,94,0.00,,OVC024,0.10,VWS V12.07,2013-05-01 15:55:00,
2013-05-01 10:56:00,42.6,41.0,30.14,North,0,0.0,4.0,94,0.00,,OVC024,0.10,VWS V12.07,2013-05-01 15:56:00,
2013-05-01 10:58:00,42.6,41.0,30.14,North,0,0.0,4.0,94,0.00,,OVC024,0.10,VWS V12.07,2013-05-01 15:58:00,
2013-05-01 10:59:00,42.8,41.5,30.14,North,0,0.0,4.0,95,0.00,,OVC024,0.10,VWS V12.07,2013-05-01 15:59:00,
2013-05-01 11:00:00,42.8,41.5,30.14,NNW,347,1.0,4.0,95,0.00,,OVC024,0.10,VWS V12.07,2013-05-01 16:00:00,
2013-05-01 11:01:00,42.8,41.2,30.14,NE,35,2.0,5.0,94,0.00,,OVC024,0.10,VWS V12.07,2013-05-01 16:01:00,
2013-05-01 11:03:00,42.8,41.5,30.14,NE,35,0.0,5.0,95,0.00,,OVC024,0.10,VWS V12.07,2013-05-01 16:03:00,
2013-05-01 11:04:00,42.8,41.5,30.14,NE,35,1.0,5.0,95,0.00,,OVC024,0.10,VWS V12.07,2013-05-01 16:04:00,
2013-05-01 11:05:00,42.8,41.5,30.14,NE,34,1.0,5.0,95,0.00,,OVC024,0.10,VWS V12.07,2013-05-01 16:05:00,
2013-05-01 11:06:00,42.8,41.2,30.14,NE,34,1.0,5.0,94,0.00,,OVC024,0.10,VWS V12.07,2013-05-01 16:06:00,
2013-05-01 11:08:00,42.6,40.7,30.14,NNW,343,2.0,5.0,93,0.00,,OVC024,0.10,VWS V12.07,2013-05-01 16:08:00,
2013-05-01 11:09:00,42.6,40.7,30.14,NNW,343,1.0,5.0,93,0.00,,OVC024,0.10,VWS V12.07,2013-05-01 16:09:00,
2013-05-01 11:10:00,42.6,40.4,30.14,NNW,343,1.0,5.0,92,0.00,,OVC024,0.10,VWS V12.07,2013-05-01 16:10:00,
2013-05-01 11:11:00,42.6,40.4,30.14,NNW,343,1.0,5.0,92,0.00,,OVC024,0.10,VWS V12.07,2013-05-01 16:11:00,
2013-05-01 11:13:00,42.8,40.6,30.14,NNW,343,0.0,5.0,92,0.00,,OVC024,0.10,VWS V12.07,2013-05-01 16:13:00,
2013-05-01 11:14:00,42.8,40.6,30.14,NNW,343,0.0,5.0,92,0.00,,OVC024,0.10,VWS V12.07,2013-05-01 16:14:00,
2013-05-01 11:15:00,42.9,41.0,30.14,NNW,343,1.0,5.0,93,0.00,,OVC024,0.10,VWS V12.07,2013-05-01 16:15:00,
2013-05-01 11:16:00,43.1,41.2,30.14,NNE,32,1.0,5.0,93,0.00,,OVC024,0.10,VWS V12.07,2013-05-01 16:16:00,
2013-05-01 11:17:00,43.1,40.9,30.14,NNE,32,1.0,5.0,92,0.00,,OVC024,0.10,VWS V12.07,2013-05-01 16:17:00,
2013-05-01 11:19:00,43.2,40.8,30.14,NNW,330,2.0,5.0,91,0.00,,OVC024,0.10,VWS V12.07,2013-05-01 16:19:00,
2013-05-01 11:20:00,42.8,41.5,30.14,NE,35,1.0,5.0,95,0.00,,OVC024,0.10,VWS V12.07,2013-05-01 16:20:00,
2013-05-01 11:21:00,43.3,40.6,30.14,NNW,331,1.0,5.0,90,0.00,,OVC024,0.10,VWS V12.07,2013-05-01 16:21:00,
2013-05-01 11:22:00,43.3,40.3,30.14,NNW,331,2.0,5.0,89,0.00,,OVC024,0.10,VWS V12.07,2013-05-01 16:22:00,
2013-05-01 11:25:00,43.5,39.9,30.14,WNW,290,1.0,5.0,87,0.00,,OVC024,0.10,VWS V12.07,2013-05-01 16:25:00,
2013-05-01 11:26:00,43.6,40.3,30.14,WNW,290,2.0,5.0,88,0.00,,OVC024,0.10,VWS V12.07,2013-05-01 16:26:00,
2013-05-01 11:27:00,43.8,40.5,30.14,WNW,290,1.0,5.0,88,0.00,,OVC024,0.10,VWS V12.07,2013-05-01 16:27:00,
2013-05-01 11:30:00,44.1,40.5,30.13,North,354,2.0,5.0,87,0.00,,OVC024,0.10,VWS V12.07,2013-05-01 16:30:00,
2013-05-01 11:32:00,44.1,40.2,30.13,WNW,293,1.0,5.0,86,0.00,,OVC024,0.10,VWS V12.07,2013-05-01 16:32:00,
2013-05-01 11:35:00,44.2,40.0,30.13,WNW,293,1.0,5.0,85,0.00,,OVC024,0.10,VWS V12.07,2013-05-01 16:35:00,
2013-05-01 11:37:00,44.3,40.1,30.13,NNW,347,3.0,5.0,85,0.00,,OVC024,0.10,VWS V12.07,2013-05-01 16:37:00,
2013-05-01 11:38:00,44.2,39.4,30.13,NNE,18,1.0,5.0,83,0.00,,OVC024,0.10,VWS V12.07,2013-05-01 16:38:00,
2013-05-01 11:40:00,44.2,39.4,30.13,WNW,288,1.0,5.0,83,0.00,,OVC024,0.10,VWS V12.07,2013-05-01 16:40:00,
2013-05-01 11:41:00,44.2,39.4,30.13,WNW,288,1.0,5.0,83,0.00,,OVC024,0.10,VWS V12.07,2013-05-01 16:41:00,
2013-05-01 11:43:00,44.2,39.4,30.13,North,0,1.0,5.0,83,0.00,,OVC024,0.10,VWS V12.07,2013-05-01 16:43:00,
2013-05-01 11:45:00,44.3,39.8,30.14,NNE,13,0.0,5.0,84,0.00,,OVC024,0.10,VWS V12.07,2013-05-01 16:45:00,
2013-05-01 11:47:00,44.5,40.0,30.14,NNE,13,0.0,5.0,84,0.00,,OVC024,0.10,VWS V12.07,2013-05-01 16:47:00,
2013-05-01 11:48:00,44.6,40.1,30.14,North,0,1.0,5.0,84,0.00,,OVC024,0.10,VWS V12.07,2013-05-01 16:48:00,
2013-05-01 11:49:00,44.6,40.1,30.14,NNW,330,2.0,5.0,84,0.00,,OVC024,0.10,VWS V12.07,2013-05-01 16:49:00,
2013-05-01 11:50:00,44.2,40.0,30.13,WNW,293,0.0,5.0,85,0.00,,OVC024,0.10,VWS V12.07,2013-05-01 16:50:00,
2013-05-01 11:51:00,44.5,39.7,30.14,NE,41,1.0,5.0,83,0.00,,OVC024,0.10,VWS V12.07,2013-05-01 16:51:00,
2013-05-01 11:52:00,44.6,39.8,30.14,NE,41,0.0,5.0,83,0.00,,OVC024,0.10,VWS V12.07,2013-05-01 16:52:00,
2013-05-01 11:53:00,44.6,40.1,30.14,NE,41,0.0,5.0,84,0.00,,OVC024,0.10,VWS V12.07,2013-05-01 16:53:00,
2013-05-01 11:54:00,44.6,39.8,30.14,NE,41,0.0,5.0,83,0.00,,OVC024,0.10,VWS V12.07,2013-05-01 16:54:00,
2013-05-01 11:56:00,44.6,40.1,30.14,NE,41,1.0,5.0,84,0.00,,OVC024,0.10,VWS V12.07,2013-05-01 16:56:00,
2013-05-01 11:57:00,44.5,40.0,30.14,West,271,2.0,5.0,84,0.00,,OVC024,0.10,VWS V12.07,2013-05-01 16:57:00,
2013-05-01 11:58:00,44.3,39.5,30.14,West,271,0.0,5.0,83,0.00,,OVC024,0.10,VWS V12.07,2013-05-01 16:58:00,
2013-05-01 11:59:00,44.3,39.5,30.14,West,271,0.0,5.0,83,0.00,,OVC024,0.10,VWS V12.07,2013-05-01 16:59:00,
2013-05-01 12:00:00,44.3,40.1,30.14,NNE,13,2.0,4.0,85,0.00,,OVC024,0.10,VWS V12.07,2013-05-01 17:00:00,
2013-05-01 12:01:00,44.3,39.5,30.14,NNW,340,1.0,5.0,83,0.00,,OVC024,0.10,VWS V12.07,2013-05-01 17:01:00,
2013-05-01 12:02:00,44.3,39.5,30.14,NNW,340,0.0,5.0,83,0.00,,OVC024,0.10,VWS V12.07,2013-05-01 17:02:00,
2013-05-01 12:04:00,44.3,40.1,30.14,NNW,340,1.0,5.0,85,0.00,,OVC024,0.10,VWS V12.07,2013-05-01 17:04:00,
2013-05-01 12:06:00,44.2,39.4,30.14,North,349,0.0,5.0,83,0.00,,OVC024,0.10,VWS V12.07,2013-05-01 17:06:00,
2013-05-01 12:08:00,44.2,39.7,30.14,North,349,1.0,5.0,84,0.00,,OVC024,0.10,VWS V12.07,2013-05-01 17:08:00,
2013-05-01 12:09:00,44.2,39.7,30.14,NW,319,1.0,5.0,84,0.00,,OVC024,0.10,VWS V12.07,2013-05-01 17:09:00,
2013-05-01 12:10:00,44.6,39.8,30.14,NE,41,0.0,2.0,83,0.00,,OVC024,0.10,VWS V12.07,2013-05-01 17:10:00,
2013-05-01 12:12:00,44.2,39.7,30.14,NW,319,0.0,5.0,84,0.00,,OVC024,0.10,VWS V12.07,2013-05-01 17:12:00,
2013-05-01 12:13:00,44.2,39.7,30.14,NW,319,0.0,5.0,84,0.00,,OVC024,0.10,VWS V12.07,2013-05-01 17:13:00,
2013-05-01 12:14:00,44.3,39.8,30.16,North,358,1.0,5.0,84,0.00,,OVC024,0.10,VWS V12.07,2013-05-01 17:14:00,
2013-05-01 12:15:00,44.3,39.8,30.16,North,358,1.0,5.0,84,0.00,,OVC024,0.10,VWS V12.07,2013-05-01 17:15:00,
2013-05-01 12:18:00,44.3,39.5,30.16,North,358,1.0,5.0,83,0.00,,OVC024,0.10,VWS V12.07,2013-05-01 17:18:00,
2013-05-01 12:20:00,44.3,39.5,30.16,NNE,27,1.0,6.0,83,0.00,,OVC024,0.10,VWS V12.07,2013-05-01 17:20:00,
2013-05-01 12:21:00,44.2,39.4,30.16,NE,42,2.0,6.0,83,0.00,,OVC024,0.10,VWS V12.07,2013-05-01 17:21:00,
2013-05-01 12:23:00,44.2,39.7,30.16,NNE,18,1.0,6.0,84,0.00,,OVC024,0.10,VWS V12.07,2013-05-01 17:23:00,
2013-05-01 12:25:00,44.1,39.3,30.16,NE,38,2.0,6.0,83,0.00,,OVC024,0.10,VWS V12.07,2013-05-01 17:25:00,
2013-05-01 12:27:00,44.1,39.6,30.16,NNW,329,3.0,6.0,84,0.00,,OVC024,0.10,VWS V12.07,2013-05-01 17:27:00,
2013-05-01 12:28:00,43.9,39.1,30.16,North,6,2.0,6.0,83,0.00,,OVC024,0.10,VWS V12.07,2013-05-01 17:28:00,
2013-05-01 12:29:00,44.1,39.3,30.16,North,6,1.0,6.0,83,0.00,,OVC024,0.10,VWS V12.07,2013-05-01 17:29:00,
2013-05-01 12:30:00,44.1,39.6,30.16,North,11,0.0,6.0,84,0.00,,OVC024,0.10,VWS V12.07,2013-05-01 17:30:00,
2013-05-01 12:32:00,44.1,39.3,30.16,North,11,3.0,6.0,83,0.00,,OVC024,0.10,VWS V12.07,2013-05-01 17:32:00,
2013-05-01 12:33:00,44.1,39.3,30.16,North,0,0.0,6.0,83,0.00,,OVC024,0.10,VWS V12.07,2013-05-01 17:33:00,
2013-05-01 12:34:00,44.1,39.3,30.16,North,0,0.0,6.0,83,0.00,,OVC024,0.10,VWS V12.07,2013-05-01 17:34:00,
2013-05-01 12:35:00,44.1,39.0,30.16,WNW,294,0.0,6.0,82,0.00,,OVC024,0.10,VWS V12.07,2013-05-01 17:35:00,
2013-05-01 12:37:00,44.1,39.0,30.16,NNE,32,4.0,6.0,82,0.00,,OVC024,0.10,VWS V12.07,2013-05-01 17:37:00,
2013-05-01 12:38:00,44.1,38.7,30.16,SW,221,3.0,6.0,81,0.00,,OVC024,0.10,VWS V12.07,2013-05-01 17:38:00,
2013-05-01 12:40:00,44.2,39.1,30.16,SW,221,0.0,6.0,82,0.00,,OVC024,0.10,VWS V12.07,2013-05-01 17:40:00,
2013-05-01 12:41:00,44.2,39.1,30.16,NW,323,3.0,6.0,82,0.00,,OVC024,0.10,VWS V12.07,2013-05-01 17:41:00,
2013-05-01 12:42:00,44.2,38.8,30.16,NW,306,1.0,6.0,81,0.00,,OVC024,0.10,VWS V12.07,2013-05-01 17:42:00,
2013-05-01 12:43:00,44.2,38.4,30.16,NW,306,0.0,6.0,80,0.00,,OVC024,0.10,VWS V12.07,2013-05-01 17:43:00,
2013-05-01 12:45:00,44.3,38.5,30.16,North,357,0.0,6.0,80,0.00,,OVC024,0.10,VWS V12.07,2013-05-01 17:45:00,
2013-05-01 12:46:00,44.5,39.0,30.16,NE,34,2.0,6.0,81,0.00,,OVC024,0.10,VWS V12.07,2013-05-01 17:46:00,
2013-05-01 12:47:00,44.6,38.5,30.16,NNE,13,0.0,6.0,79,0.00,,OVC024,0.10,VWS V12.07,2013-05-01 17:47:00,
2013-05-01 12:48:00,44.8,38.7,30.16,NNE,13,0.0,6.0,79,0.00,,OVC024,0.10,VWS V12.07,2013-05-01 17:48:00,
2013-05-01 12:50:00,45.1,39.3,30.16,NNE,13,2.0,6.0,80,0.00,,OVC024,0.10,VWS V12.07,2013-05-01 17:50:00,
2013-05-01 12:51:00,45.5,39.7,30.16,NNE,22,0.0,6.0,80,0.00,,OVC024,0.10,VWS V12.07,2013-05-01 17:51:00,
2013-05-01 12:52:00,45.7,39.2,30.16,NNW,332,2.0,6.0,78,0.00,,OVC024,0.10,VWS V12.07,2013-05-01 17:52:00,
2013-05-01 12:53:00,45.7,38.9,30.16,NNE,27,2.0,6.0,77,0.00,,OVC024,0.10,VWS V12.07,2013-05-01 17:53:00,
2013-05-01 12:55:00,45.7,38.9,30.16,NNW,343,2.0,6.0,77,0.00,,OVC024,0.10,VWS V12.07,2013-05-01 17:55:00,
2013-05-01 12:57:00,45.8,39.3,30.16,NNW,343,1.0,6.0,78,0.00,,OVC024,0.10,VWS V12.07,2013-05-01 17:57:00,
2013-05-01 12:59:00,46.1,39.3,30.15,NE,38,5.0,6.0,77,0.00,,OVC024,0.10,VWS V12.07,2013-05-01 17:59:00,
2013-05-01 13:00:00,46.1,39.0,30.15,NNW,331,2.0,6.0,76,0.00,,OVC024,0.10,VWS V12.07,2013-05-01 18:00:00,
2013-05-01 13:02:00,46.1,39.0,30.15,NNW,331,0.0,6.0,76,0.00,,OVC024,0.10,VWS V12.07,2013-05-01 18:02:00,
2013-05-01 13:03:00,46.1,39.0,30.15,North,358,2.0,6.0,76,0.00,,OVC024,0.10,VWS V12.07,2013-05-01 18:03:00,
2013-05-01 13:04:00,46.1,39.0,30.15,North,358,4.0,7.0,76,0.00,,OVC024,0.10,VWS V12.07,2013-05-01 18:04:00,
2013-05-01 13:05:00,46.1,39.0,30.15,NNE,15,1.0,7.0,76,0.00,,OVC024,0.10,VWS V12.07,2013-05-01 18:05:00,
2013-05-01 13:07:00,46.1,38.6,30.15,NE,36,1.0,7.0,75,0.00,,OVC024,0.10,VWS V12.07,2013-05-01 18:07:00,
2013-05-01 13:08:00,46.1,38.6,30.15,SW,232,4.0,7.0,75,0.00,,OVC024,0.10,VWS V12.07,2013-05-01 18:08:00,
2013-05-01 13:09:00,46.1,38.6,30.15,WNW,283,1.0,7.0,75,0.00,,OVC024,0.10,VWS V12.07,2013-05-01 18:09:00,
2013-05-01 13:10:00,46.2,39.1,30.15,WNW,283,0.0,7.0,76,0.00,,OVC024,0.10,VWS V12.07,2013-05-01 18:10:00,
2013-05-01 13:11:00,46.2,38.7,30.15,North,0,6.0,9.0,75,0.00,,OVC024,0.10,VWS V12.07,2013-05-01 18:11:00,
2013-05-01 13:13:00,46.1,38.3,30.15,NNE,15,5.0,10.0,74,0.00,,OVC024,0.10,VWS V12.07,2013-05-01 18:13:00,
2013-05-01 13:14:00,46.1,38.3,30.16,North,349,5.0,10.0,74,0.00,,OVC024,0.10,VWS V12.07,2013-05-01 18:14:00,
2013-05-01 13:15:00,46.0,38.5,30.16,North,0,5.0,10.0,75,0.00,,OVC024,0.10,VWS V12.07,2013-05-01 18:15:00,
2013-05-01 13:16:00,45.8,38.0,30.16,NE,37,4.0,10.0,74,0.00,,OVC024,0.10,VWS V12.07,2013-05-01 18:16:00,
2013-05-01 13:18:00,45.7,38.2,30.16,North,353,2.0,10.0,75,0.00,,OVC024,0.10,VWS V12.07,2013-05-01 18:18:00,
2013-05-01 13:19:00,45.7,38.6,30.16,North,353,1.0,10.0,76,0.00,,OVC024,0.10,VWS V12.07,2013-05-01 18:19:00,
2013-05-01 13:20:00,45.7,38.6,30.16,NW,324,3.0,10.0,76,0.00,,OVC024,0.10,VWS V12.07,2013-05-01 18:20:00,
2013-05-01 13:21:00,45.7,38.2,30.16,North,358,2.0,10.0,75,0.00,,OVC024,0.10,VWS V12.07,2013-05-01 18:21:00,
2013-05-01 13:23:00,45.8,38.3,30.16,WNW,293,1.0,10.0,75,0.00,,OVC024,0.10,VWS V12.07,2013-05-01 18:23:00,
2013-05-01 13:25:00,46.0,38.5,30.16,NW,323,2.0,10.0,75,0.00,,OVC024,0.10,VWS V12.07,2013-05-01 18:25:00,
2013-05-01 13:26:00,46.0,38.2,30.16,NNW,341,2.0,10.0,74,0.00,,OVC024,0.10,VWS V12.07,2013-05-01 18:26:00,
2013-05-01 13:28:00,46.1,39.0,30.17,NW,319,3.0,10.0,76,0.00,,OVC024,0.10,VWS V12.07,2013-05-01 18:28:00,
2013-05-01 13:29:00,46.0,38.2,30.17,NW,320,3.0,10.0,74,0.00,,OVC024,0.10,VWS V12.07,2013-05-01 18:29:00,
2013-05-01 13:30:00,46.0,38.2,30.17,NNE,25,3.0,10.0,74,0.00,,OVC024,0.10,VWS V12.07,2013-05-01 18:30:00,
2013-05-01 13:31:00,45.8,38.0,30.17,NNE,25,2.0,10.0,74,0.00,,OVC024,0.10,VWS V12.07,2013-05-01 18:31:00,
2013-05-01 13:32:00,45.8,38.3,30.17,NE,43,4.0,10.0,75,0.00,,OVC024,0.10,VWS V12.07,2013-05-01 18:32:00,
2013-05-01 13:34:00,45.8,38.3,30.17,North,358,2.0,10.0,75,0.00,,OVC024,0.10,VWS V12.07,2013-05-01 18:34:00,
2013-05-01 13:35:00,45.8,38.0,30.17,NE,56,2.0,10.0,74,0.00,,OVC024,0.10,VWS V12.07,2013-05-01 18:35:00,
2013-05-01 13:36:00,45.8,38.7,30.17,NE,37,4.0,10.0,76,0.00,,OVC024,0.10,VWS V12.07,2013-05-01 18:36:00,
2013-05-01 13:37:00,45.8,38.0,30.17,NNE,18,4.0,11.0,74,0.00,,OVC024,0.10,VWS V12.07,2013-05-01 18:37:00,
2013-05-01 13:39:00,45.7,37.9,30.17,WNW,292,0.0,11.0,74,0.00,,OVC024,0.10,VWS V12.07,2013-05-01 18:39:00,
2013-05-01 13:40:00,45.7,37.9,30.17,NNW,346,1.0,11.0,74,0.00,,OVC024,0.10,VWS V12.07,2013-05-01 18:40:00,
2013-05-01 13:41:00,45.7,38.2,30.17,NNW,346,0.0,11.0,75,0.00,,OVC024,0.10,VWS V12.07,2013-05-01 18:41:00,
2013-05-01 13:42:00,45.7,38.2,30.17,WNW,300,0.0,11.0,75,0.00,,OVC024,0.10,VWS V12.07,2013-05-01 18:42:00,
2013-05-01 13:44:00,45.5,37.7,30.17,North,11,3.0,11.0,74,0.00,,OVC024,0.10,VWS V12.07,2013-05-01 18:44:00,
2013-05-01 13:45:00,45.5,38.0,30.17,North,3,1.0,11.0,75,0.00,,OVC024,0.10,VWS V12.07,2013-05-01 18:45:00,
2013-05-01 13:46:00,45.5,38.0,30.17,North,3,1.0,11.0,75,0.00,,OVC024,0.10,VWS V12.07,2013-05-01 18:46:00,
2013-05-01 13:47:00,45.5,38.0,30.17,NE,51,3.0,11.0,75,0.00,,OVC024,0.10,VWS V12.07,2013-05-01 18:47:00,
2013-05-01 13:50:00,45.7,38.6,30.17,North,358,2.0,11.0,76,0.00,,OVC024,0.10,VWS V12.07,2013-05-01 18:50:00,
2013-05-01 13:51:00,45.7,37.9,30.17,WSW,257,3.0,11.0,74,0.00,,OVC024,0.10,VWS V12.07,2013-05-01 18:51:00,
2013-05-01 13:52:00,45.5,37.7,30.17,WSW,257,0.0,11.0,74,0.00,,OVC024,0.10,VWS V12.07,2013-05-01 18:52:00,
2013-05-01 13:56:00,45.4,37.3,30.17,North,0,3.0,11.0,73,0.00,,OVC024,0.10,VWS V12.07,2013-05-01 18:56:00,
2013-05-01 13:57:00,45.4,37.6,30.17,ENE,63,7.0,11.0,74,0.00,,OVC024,0.10,VWS V12.07,2013-05-01 18:57:00,
2013-05-01 14:00:00,45.5,37.7,30.17,North,3,0.0,11.0,74,0.00,,OVC024,0.10,VWS V12.07,2013-05-01 19:00:00,
2013-05-01 14:01:00,45.2,37.4,30.18,NW,323,3.0,11.0,74,0.00,,OVC024,0.10,VWS V12.07,2013-05-01 19:01:00,
2013-05-01 14:02:00,45.1,37.0,30.18,North,356,3.0,11.0,73,0.00,,OVC024,0.10,VWS V12.07,2013-05-01 19:02:00,
2013-05-01 14:06:00,45.1,37.0,30.18,NNW,339,0.0,11.0,73,0.00,,OVC024,0.10,VWS V12.07,2013-05-01 19:06:00,
2013-05-01 14:07:00,45.1,37.3,30.18,North,1,1.0,11.0,74,0.00,,OVC024,0.10,VWS V12.07,2013-05-01 19:07:00,
2013-05-01 14:08:00,45.1,37.3,30.18,North,1,1.0,11.0,74,0.00,,OVC024,0.10,VWS V12.07,2013-05-01 19:08:00,
2013-05-01 14:10:00,45.5,37.7,30.17,North,351,4.0,6.0,74,0.00,,OVC024,0.10,VWS V12.07,2013-05-01 19:10:00,
2013-05-01 14:11:00,44.9,37.1,30.18,NNE,29,2.0,11.0,74,0.00,,OVC024,0.10,VWS V12.07,2013-05-01 19:11:00,
2013-05-01 14:12:00,44.9,37.5,30.18,North,0,2.0,11.0,75,0.00,,OVC024,0.10,VWS V12.07,2013-05-01 19:12:00,
2013-05-01 14:13:00,44.9,37.5,30.18,NNW,347,4.0,11.0,75,0.00,,OVC024,0.10,VWS V12.07,2013-05-01 19:13:00,
2013-05-01 14:16:00,44.8,37.0,30.20,NNE,28,0.0,11.0,74,0.00,,OVC024,0.10,VWS V12.07,2013-05-01 19:16:00,
2013-05-01 14:17:00,44.8,37.4,30.20,NNE,28,0.0,11.0,75,0.00,,OVC024,0.10,VWS V12.07,2013-05-01 19:17:00,
2013-05-01 14:18:00,44.8,37.4,30.20,NNE,28,0.0,11.0,75,0.00,,OVC024,0.10,VWS V12.07,2013-05-01 19:18:00,
2013-05-01 14:20:00,45.1,37.3,30.18,NW,306,3.0,10.0,74,0.00,,OVC024,0.10,VWS V12.07,2013-05-01 19:20:00,
2013-05-01 14:22:00,44.9,37.8,30.20,NNW,341,3.0,11.0,76,0.00,,OVC024,0.10,VWS V12.07,2013-05-01 19:22:00,
2013-05-01 14:23:00,44.9,37.1,30.20,NNW,341,1.0,11.0,74,0.00,,OVC024,0.10,VWS V12.07,2013-05-01 19:23:00,
2013-05-01 14:24:00,44.9,37.1,30.20,North,350,1.0,11.0,74,0.00,,OVC024,0.10,VWS V12.07,2013-05-01 19:24:00,
2013-05-01 14:28:00,44.8,37.0,30.20,North,358,0.0,11.0,74,0.00,,OVC024,0.10,VWS V12.07,2013-05-01 19:28:00,
2013-05-01 14:29:00,44.6,36.8,30.20,ENE,57,1.0,11.0,74,0.00,,OVC024,0.10,VWS V12.07,2013-05-01 19:29:00,
2013-05-01 14:30:00,44.8,37.0,30.20,NNE,28,1.0,6.0,74,0.00,,OVC024,0.10,VWS V12.07,2013-05-01 19:30:00,
2013-05-01 14:33:00,44.6,37.2,30.20,NNE,12,3.0,11.0,75,0.00,,OVC024,0.10,VWS V12.07,2013-05-01 19:33:00,
2013-05-01 14:34:00,44.6,36.8,30.20,North,358,1.0,11.0,74,0.00,,OVC024,0.10,VWS V12.07,2013-05-01 19:34:00,
2013-05-01 14:35:00,44.6,36.8,30.20,NNE,23,1.0,11.0,74,0.00,,OVC024,0.10,VWS V12.07,2013-05-01 19:35:00,
2013-05-01 14:38:00,44.3,36.9,30.20,NW,314,0.0,11.0,75,0.00,,OVC024,0.10,VWS V12.07,2013-05-01 19:38:00,
2013-05-01 14:39:00,44.3,36.9,30.20,NW,314,0.0,11.0,75,0.00,,OVC024,0.10,VWS V12.07,2013-05-01 19:39:00,
2013-05-01 14:40:00,44.3,37.2,30.20,NE,51,1.0,11.0,76,0.00,,OVC024,0.10,VWS V12.07,2013-05-01 19:40:00,
2013-05-01 14:43:00,44.2,37.1,30.20,WNW,290,2.0,11.0,76,0.00,,OVC024,0.10,VWS V12.07,2013-05-01 19:43:00,
2013-05-01 14:44:00,44.2,37.1,30.20,WNW,300,2.0,11.0,76,0.00,,OVC024,0.10,VWS V12.07,2013-05-01 19:44:00,
2013-05-01 14:45:00,44.2,37.1,30.20,WNW,300,0.0,11.0,76,0.00,,OVC024,0.10,VWS V12.07,2013-05-01 19:45:00,
2013-05-01 14:49:00,43.9,36.8,30.20,West,263,1.0,11.0,76,0.00,,OVC024,0.10,VWS V12.07,2013-05-01 19:49:00,
2013-05-01 14:50:00,43.9,36.8,30.20,North,0,1.0,11.0,76,0.00,,OVC024,0.10,VWS V12.07,2013-05-01 19:50:00,
2013-05-01 14:51:00,43.9,36.8,30.20,North,0,0.0,11.0,76,0.00,,OVC024,0.10,VWS V12.07,2013-05-01 19:51:00,
2013-05-01 14:54:00,44.1,37.0,30.20,NNW,336,0.0,11.0,76,0.00,,OVC024,0.10,VWS V12.07,2013-05-01 19:54:00,
2013-05-01 14:55:00,44.2,37.5,30.20,NNW,336,1.0,11.0,77,0.00,,OVC024,0.10,VWS V12.07,2013-05-01 19:55:00,
2013-05-01 14:56:00,44.2,37.5,30.20,NNW,336,0.0,11.0,77,0.00,,OVC024,0.10,VWS V12.07,2013-05-01 19:56:00,
2013-05-01 14:59:00,44.3,37.2,30.22,NNE,27,0.0,11.0,76,0.00,,OVC024,0.10,VWS V12.07,2013-05-01 19:59:00,
2013-05-01 15:00:00,44.2,37.1,30.20,WNW,300,0.0,4.0,76,0.00,,OVC024,0.10,VWS V12.07,2013-05-01 20:00:00,
2013-05-01 15:01:00,44.3,37.2,30.22,NNE,21,1.0,11.0,76,0.00,,OVC024,0.10,VWS V12.07,2013-05-01 20:01:00,
2013-05-01 15:02:00,44.2,36.8,30.22,NW,318,1.0,11.0,75,0.00,,OVC024,0.10,VWS V12.07,2013-05-01 20:02:00,
2013-05-01 15:04:00,44.1,37.0,30.22,NE,43,3.0,11.0,76,0.00,,OVC024,0.10,VWS V12.07,2013-05-01 20:04:00,
2013-05-01 15:05:00,44.1,37.0,30.22,NE,41,2.0,11.0,76,0.00,,OVC024,0.10,VWS V12.07,2013-05-01 20:05:00,
2013-05-01 15:06:00,43.9,36.8,30.22,NE,41,2.0,11.0,76,0.00,,OVC024,0.10,VWS V12.07,2013-05-01 20:06:00,
2013-05-01 15:07:00,43.9,36.8,30.22,NE,41,2.0,11.0,76,0.00,,OVC024,0.10,VWS V12.07,2013-05-01 20:07:00,
2013-05-01 15:10:00,43.8,37.1,30.22,North,354,1.0,11.0,77,0.00,,OVC024,0.10,VWS V12.07,2013-05-01 20:10:00,
2013-05-01 15:11:00,43.6,36.9,30.22,North,349,1.0,11.0,77,0.00,,OVC024,0.10,VWS V12.07,2013-05-01 20:11:00,
2013-05-01 15:12:00,43.6,36.9,30.22,North,349,1.0,11.0,77,0.00,,OVC024,0.10,VWS V12.07,2013-05-01 20:12:00,
2013-05-01 15:15:00,43.5,36.8,30.22,NW,324,2.0,11.0,77,0.00,,OVC024,0.10,VWS V12.07,2013-05-01 20:15:00,
2013-05-01 15:16:00,43.5,36.8,30.22,WNW,298,0.0,11.0,77,0.00,,OVC024,0.10,VWS V12.07,2013-05-01 20:16:00,
2013-05-01 15:17:00,43.5,36.8,30.22,NNE,29,2.0,11.0,77,0.00,,OVC024,0.10,VWS V12.07,2013-05-01 20:17:00,
2013-05-01 15:18:00,43.5,36.8,30.22,NE,44,0.0,11.0,77,0.00,,OVC024,0.10,VWS V12.07,2013-05-01 20:18:00,
2013-05-01 15:20:00,43.5,37.1,30.22,NE,44,0.0,11.0,78,0.00,,OVC024,0.10,VWS V12.07,2013-05-01 20:20:00,
2013-05-01 15:22:00,43.5,37.1,30.22,SSW,212,1.0,11.0,78,0.00,,OVC024,0.10,VWS V12.07,2013-05-01 20:22:00,
2013-05-01 15:23:00,43.5,36.8,30.22,East,91,0.0,11.0,77,0.00,,OVC024,0.10,VWS V12.07,2013-05-01 20:23:00,
2013-05-01 15:25:00,43.5,37.1,30.22,NE,34,3.0,11.0,78,0.00,,OVC024,0.10,VWS V12.07,2013-05-01 20:25:00,
2013-05-01 15:27:00,43.5,37.1,30.22,NNE,18,1.0,11.0,78,0.00,,OVC024,0.10,VWS V12.07,2013-05-01 20:27:00,
2013-05-01 15:28:00,43.5,37.1,30.22,NE,37,2.0,11.0,78,0.00,,OVC024,0.10,VWS V12.07,2013-05-01 20:28:00,
2013-05-01 15:29:00,43.5,37.1,30.21,NE,34,0.0,11.0,78,0.00,,OVC024,0.10,VWS V12.07,2013-05-01 20:29:00,
2013-05-01 15:30:00,43.3,36.9,30.21,NE,34,0.0,11.0,78,0.00,,OVC024,0.10,VWS V12.07,2013-05-01 20:30:00,
2013-05-01 15:32:00,43.5,37.4,30.21,NE,34,2.0,11.0,79,0.00,,OVC024,0.10,VWS V12.07,2013-05-01 20:32:00,
2013-05-01 15:33:00,43.5,37.1,30.21,NE,34,2.0,11.0,78,0.00,,OVC024,0.10,VWS V12.07,2013-05-01 20:33:00,
2013-05-01 15:34:00,43.5,37.1,30.21,NE,34,0.0,11.0,78,0.00,,OVC024,0.10,VWS V12.07,2013-05-01 20:34:00,
2013-05-01 15:35:00,43.5,37.4,30.21,NE,34,2.0,11.0,79,0.00,,OVC024,0.10,VWS V12.07,2013-05-01 20:35:00,
2013-05-01 15:36:00,43.5,37.4,30.21,NE,34,1.0,11.0,79,0.00,,OVC024,0.10,VWS V12.07,2013-05-01 20:36:00,
2013-05-01 15:37:00,43.3,36.9,30.21,NE,34,1.0,11.0,78,0.00,,OVC024,0.10,VWS V12.07,2013-05-01 20:37:00,
2013-05-01 15:38:00,43.3,36.9,30.21,NW,324,1.0,11.0,78,0.00,,OVC024,0.10,VWS V12.07,2013-05-01 20:38:00,
2013-05-01 15:39:00,43.3,36.6,30.21,NW,324,0.0,11.0,77,0.00,,OVC024,0.10,VWS V12.07,2013-05-01 20:39:00,
2013-05-01 15:40:00,43.2,36.8,30.21,North,6,1.0,11.0,78,0.00,,OVC024,0.10,VWS V12.07,2013-05-01 20:40:00,
2013-05-01 15:42:00,43.2,36.8,30.21,North,6,0.0,11.0,78,0.00,,OVC024,0.10,VWS V12.07,2013-05-01 20:42:00,
2013-05-01 15:43:00,43.2,36.8,30.21,North,4,2.0,11.0,78,0.00,,OVC024,0.10,VWS V12.07,2013-05-01 20:43:00,
2013-05-01 15:44:00,43.2,36.8,30.22,North,352,1.0,11.0,78,0.00,,OVC024,0.10,VWS V12.07,2013-05-01 20:44:00,
2013-05-01 15:46:00,43.2,37.1,30.22,North,351,1.0,11.0,79,0.00,,OVC024,0.10,VWS V12.07,2013-05-01 20:46:00,
2013-05-01 15:47:00,43.2,37.1,30.22,North,351,1.0,11.0,79,0.00,,OVC024,0.10,VWS V12.07,2013-05-01 20:47:00,
2013-05-01 15:48:00,43.2,37.1,30.22,North,351,0.0,11.0,79,0.00,,OVC024,0.10,VWS V12.07,2013-05-01 20:48:00,
2013-05-01 15:49:00,43.2,37.1,30.22,North,349,2.0,11.0,79,0.00,,OVC024,0.10,VWS V12.07,2013-05-01 20:49:00,
2013-05-01 15:50:00,43.5,37.4,30.21,NE,34,1.0,6.0,79,0.00,,OVC024,0.10,VWS V12.07,2013-05-01 20:50:00,
2013-05-01 15:51:00,43.1,37.0,30.22,North,0,1.0,11.0,79,0.00,,OVC024,0.10,VWS V12.07,2013-05-01 20:51:00,
2013-05-01 15:53:00,43.1,37.0,30.22,North,0,1.0,11.0,79,0.00,,OVC024,0.10,VWS V12.07,2013-05-01 20:53:00,
2013-05-01 15:54:00,43.1,37.0,30.22,NNW,347,4.0,11.0,79,0.00,,OVC024,0.10,VWS V12.07,2013-05-01 20:54:00,
2013-05-01 15:57:00,43.1,37.0,30.22,North,0,1.0,11.0,79,0.00,,OVC024,0.10,VWS V12.07,2013-05-01 20:57:00,
2013-05-01 15:58:00,43.1,37.0,30.22,North,0,1.0,11.0,79,0.00,,OVC024,0.10,VWS V12.07,2013-05-01 20:58:00,
2013-05-01 15:59:00,43.1,37.0,30.22,North,0,2.0,11.0,79,0.00,,OVC024,0.10,VWS V12.07,2013-05-01 20:59:00,
2013-05-01 16:00:00,43.1,37.0,30.22,NW,313,4.0,11.0,79,0.00,,OVC024,0.10,VWS V12.07,2013-05-01 21:00:00,
2013-05-01 16:03:00,42.9,36.8,30.22,NW,313,0.0,11.0,79,0.00,,OVC024,0.10,VWS V12.07,2013-05-01 21:03:00,
2013-05-01 16:04:00,42.9,36.8,30.22,NW,313,0.0,11.0,79,0.00,,OVC024,0.10,VWS V12.07,2013-05-01 21:04:00,
2013-05-01 16:05:00,42.9,36.8,30.22,North,4,1.0,11.0,79,0.00,,OVC024,0.10,VWS V12.07,2013-05-01 21:05:00,
2013-05-01 16:08:00,42.9,36.8,30.22,NNE,21,0.0,11.0,79,0.00,,OVC024,0.10,VWS V12.07,2013-05-01 21:08:00,
2013-05-01 16:09:00,42.9,36.8,30.22,NNE,21,0.0,11.0,79,0.00,,OVC024,0.10,VWS V12.07,2013-05-01 21:09:00,
2013-05-01 16:10:00,42.9,36.8,30.22,NNE,21,0.0,11.0,79,0.00,,OVC024,0.10,VWS V12.07,2013-05-01 21:10:00,
2013-05-01 16:14:00,42.6,36.5,30.24,North,358,1.0,11.0,79,0.00,,OVC024,0.10,VWS V12.07,2013-05-01 21:14:00,
2013-05-01 16:15:00,42.6,36.5,30.24,North,0,5.0,11.0,79,0.00,,OVC024,0.10,VWS V12.07,2013-05-01 21:15:00,
2013-05-01 16:20:00,42.3,36.6,30.24,North,356,0.0,11.0,80,0.00,,OVC024,0.10,VWS V12.07,2013-05-01 21:20:00,
2013-05-01 16:21:00,42.2,36.2,30.24,North,356,0.0,11.0,79,0.00,,OVC024,0.10,VWS V12.07,2013-05-01 21:21:00,
2013-05-01 16:25:00,42.2,36.5,30.24,WNW,295,2.0,11.0,80,0.00,,OVC024,0.10,VWS V12.07,2013-05-01 21:25:00,
2013-05-01 16:26:00,42.2,36.5,30.24,WNW,299,0.0,11.0,80,0.00,,OVC024,0.10,VWS V12.07,2013-05-01 21:26:00,
2013-05-01 16:27:00,42.2,36.5,30.24,WNW,299,3.0,11.0,80,0.00,,OVC024,0.10,VWS V12.07,2013-05-01 21:27:00,
2013-05-01 16:30:00,42.1,36.4,30.24,NNW,347,0.0,11.0,80,0.00,,OVC024,0.10,VWS V12.07,2013-05-01 21:30:00,
2013-05-01 16:31:00,42.1,36.4,30.24,North,358,2.0,11.0,80,0.00,,OVC024,0.10,VWS V12.07,2013-05-01 21:31:00,
2013-05-01 16:32:00,41.9,36.2,30.24,NNW,345,0.0,11.0,80,0.00,,OVC024,0.10,VWS V12.07,2013-05-01 21:32:00,
2013-05-01 16:36:00,41.8,36.1,30.24,NW,321,1.0,11.0,80,0.00,,OVC024,0.10,VWS V12.07,2013-05-01 21:36:00,
2013-05-01 16:37:00,41.8,36.1,30.24,WNW,288,2.0,11.0,80,0.00,,OVC024,0.10,VWS V12.07,2013-05-01 21:37:00,
2013-05-01 16:38:00,41.8,36.1,30.24,NNW,327,3.0,11.0,80,0.00,,OVC024,0.10,VWS V12.07,2013-05-01 21:38:00,
2013-05-01 16:40:00,42.2,36.5,30.24,North,356,1.0,5.0,80,0.00,,OVC024,0.10,VWS V12.07,2013-05-01 21:40:00,
2013-05-01 16:41:00,41.5,35.5,30.24,NW,309,0.0,11.0,79,0.00,,OVC024,0.10,VWS V12.07,2013-05-01 21:41:00,
2013-05-01 16:42:00,41.3,35.3,30.24,NW,305,1.0,11.0,79,0.00,,OVC024,0.10,VWS V12.07,2013-05-01 21:42:00,
2013-05-01 16:43:00,41.3,35.6,30.24,NNE,15,0.0,11.0,80,0.00,,OVC024,0.10,VWS V12.07,2013-05-01 21:43:00,
2013-05-01 16:46:00,41.2,35.5,30.25,North,5,1.0,11.0,80,0.00,,OVC024,0.10,VWS V12.07,2013-05-01 21:46:00,
2013-05-01 16:47:00,41.1,35.4,30.25,SW,214,5.0,11.0,80,0.00,,OVC024,0.10,VWS V12.07,2013-05-01 21:47:00,
2013-05-01 16:48:00,41.1,35.4,30.25,WSW,240,0.0,11.0,80,0.00,,OVC024,0.10,VWS V12.07,2013-05-01 21:48:00,
2013-05-01 16:50:00,41.9,36.2,30.24,North,353,1.0,4.0,80,0.00,,OVC024,0.10,VWS V12.07,2013-05-01 21:50:00,
2013-05-01 16:51:00,40.8,35.1,30.25,WNW,295,2.0,11.0,80,0.00,,OVC024,0.10,VWS V12.07,2013-05-01 21:51:00,
2013-05-01 16:52:00,40.8,35.4,30.25,NW,304,2.0,11.0,81,0.00,,OVC024,0.10,VWS V12.07,2013-05-01 21:52:00,
2013-05-01 16:53:00,40.6,35.2,30.25,NW,306,2.0,11.0,81,0.00,,OVC024,0.10,VWS V12.07,2013-05-01 21:53:00,
2013-05-01 16:54:00,40.6,35.2,30.25,NNE,29,1.0,11.0,81,0.00,,OVC024,0.10,VWS V12.07,2013-05-01 21:54:00,
2013-05-01 16:56:00,40.5,35.1,30.25,WNW,293,3.0,11.0,81,0.00,,OVC024,0.10,VWS V12.07,2013-05-01 21:56:00,
2013-05-01 16:57:00,40.5,35.1,30.25,WNW,297,0.0,11.0,81,0.00,,OVC024,0.10,VWS V12.07,2013-05-01 21:57:00,
2013-05-01 16:58:00,40.5,35.1,30.25,WNW,297,0.0,11.0,81,0.00,,OVC024,0.10,VWS V12.07,2013-05-01 21:58:00,
2013-05-01 17:00:00,40.5,35.1,30.26,WNW,297,1.0,11.0,81,0.00,,OVC024,0.10,VWS V12.07,2013-05-01 22:00:00,
2013-05-01 17:01:00,40.5,35.1,30.26,North,0,3.0,11.0,81,0.00,,OVC024,0.10,VWS V12.07,2013-05-01 22:01:00,
2013-05-01 17:02:00,40.5,35.1,30.26,North,0,0.0,11.0,81,0.00,,OVC024,0.10,VWS V12.07,2013-05-01 22:02:00,
2013-05-01 17:03:00,40.5,34.8,30.26,North,358,2.0,11.0,80,0.00,,OVC024,0.10,VWS V12.07,2013-05-01 22:03:00,
2013-05-01 17:05:00,40.3,34.6,30.26,NNE,23,1.0,11.0,80,0.00,,OVC024,0.10,VWS V12.07,2013-05-01 22:05:00,
2013-05-01 17:06:00,40.2,34.8,30.26,NNE,23,0.0,11.0,81,0.00,,OVC024,0.10,VWS V12.07,2013-05-01 22:06:00,
2013-05-01 17:07:00,40.2,34.8,30.26,North,7,2.0,11.0,81,0.00,,OVC024,0.10,VWS V12.07,2013-05-01 22:07:00,
2013-05-01 17:08:00,40.2,34.8,30.26,North,7,0.0,11.0,81,0.00,,OVC024,0.10,VWS V12.07,2013-05-01 22:08:00,
2013-05-01 17:10:00,40.6,35.2,30.25,NNE,29,2.0,5.0,81,0.00,,OVC024,0.10,VWS V12.07,2013-05-01 22:10:00,
2013-05-01 17:11:00,40.1,34.8,30.26,NNE,31,0.0,11.0,81,0.00,,OVC024,0.10,VWS V12.07,2013-05-01 22:11:00,
2013-05-01 17:12:00,39.9,34.5,30.26,NNE,30,0.0,11.0,81,0.00,,OVC024,0.10,VWS V12.07,2013-05-01 22:12:00,
2013-05-01 17:13:00,39.9,34.5,30.26,NNE,30,1.0,11.0,81,0.00,,OVC024,0.10,VWS V12.07,2013-05-01 22:13:00,
2013-05-01 17:16:00,39.9,34.5,30.26,North,0,1.0,11.0,81,0.00,,OVC024,0.10,VWS V12.07,2013-05-01 22:16:00,
2013-05-01 17:17:00,39.8,34.5,30.26,North,354,1.0,11.0,81,0.00,,OVC024,0.10,VWS V12.07,2013-05-01 22:17:00,
2013-05-01 17:18:00,39.8,34.5,30.26,North,354,2.0,11.0,81,0.00,,OVC024,0.10,VWS V12.07,2013-05-01 22:18:00,
2013-05-01 17:19:00,39.8,34.5,30.26,NNW,346,2.0,11.0,81,0.00,,OVC024,0.10,VWS V12.07,2013-05-01 22:19:00,
2013-05-01 17:20:00,40.3,34.6,30.26,North,0,2.0,4.0,80,0.00,,OVC024,0.10,VWS V12.07,2013-05-01 22:20:00,
2013-05-01 17:21:00,39.8,34.5,30.26,North,352,1.0,11.0,81,0.00,,OVC024,0.10,VWS V12.07,2013-05-01 22:21:00,
2013-05-01 17:22:00,39.8,34.5,30.26,North,352,1.0,11.0,81,0.00,,OVC024,0.10,VWS V12.07,2013-05-01 22:22:00,
2013-05-01 17:23:00,39.8,34.5,30.26,North,352,0.0,11.0,81,0.00,,OVC024,0.10,VWS V12.07,2013-05-01 22:23:00,
2013-05-01 17:24:00,39.8,34.5,30.26,North,352,0.0,11.0,81,0.00,,OVC024,0.10,VWS V12.07,2013-05-01 22:24:00,
2013-05-01 17:26:00,39.6,34.3,30.26,NE,40,1.0,11.0,81,0.00,,OVC024,0.10,VWS V12.07,2013-05-01 22:26:00,
2013-05-01 17:28:00,39.6,34.3,30.26,NE,40,0.0,11.0,81,0.00,,OVC024,0.10,VWS V12.07,2013-05-01 22:28:00,
2013-05-01 17:29:00,39.6,34.3,30.28,NE,40,0.0,11.0,81,0.00,,OVC024,0.10,VWS V12.07,2013-05-01 22:29:00,
2013-05-01 17:30:00,39.9,34.5,30.26,NNE,31,1.0,5.0,81,0.00,,OVC024,0.10,VWS V12.07,2013-05-01 22:30:00,
2013-05-01 17:32:00,39.5,33.8,30.28,NE,39,0.0,11.0,80,0.00,,OVC024,0.10,VWS V12.07,2013-05-01 22:32:00,
2013-05-01 17:33:00,39.3,34.0,30.28,NE,39,2.0,11.0,81,0.00,,OVC024,0.10,VWS V12.07,2013-05-01 22:33:00,
2013-05-01 17:34:00,39.2,33.6,30.28,North,1,1.0,11.0,80,0.00,,OVC024,0.10,VWS V12.07,2013-05-01 22:34:00,
2013-05-01 17:37:00,39.1,33.8,30.28,North,7,3.0,11.0,81,0.00,,OVC024,0.10,VWS V12.07,2013-05-01 22:37:00,
2013-05-01 17:38:00,38.9,33.6,30.28,North,349,2.0,11.0,81,0.00,,OVC024,0.10,VWS V12.07,2013-05-01 22:38:00,
2013-05-01 17:39:00,38.9,33.6,30.28,North,0,3.0,11.0,81,0.00,,OVC024,0.10,VWS V12.07,2013-05-01 22:39:00,
2013-05-01 17:40:00,39.6,34.3,30.26,North,352,0.0,5.0,81,0.00,,OVC024,0.10,VWS V12.07,2013-05-01 22:40:00,
2013-05-01 17:42:00,38.6,33.3,30.28,NNW,338,0.0,11.0,81,0.00,,OVC024,0.10,VWS V12.07,2013-05-01 22:42:00,
2013-05-01 17:44:00,38.5,33.5,30.28,NNW,338,0.0,11.0,82,0.00,,OVC024,0.10,VWS V12.07,2013-05-01 22:44:00,
2013-05-01 17:45:00,38.5,33.5,30.28,North,0,1.0,11.0,82,0.00,,OVC024,0.10,VWS V12.07,2013-05-01 22:45:00,
2013-05-01 17:47:00,38.3,33.3,30.28,North,3,0.0,11.0,82,0.00,,OVC024,0.10,VWS V12.07,2013-05-01 22:47:00,
2013-05-01 17:49:00,38.2,33.2,30.28,North,358,1.0,11.0,82,0.00,,OVC024,0.10,VWS V12.07,2013-05-01 22:49:00,
2013-05-01 17:50:00,38.2,33.5,30.28,West,275,2.0,11.0,83,0.00,,OVC024,0.10,VWS V12.07,2013-05-01 22:50:00,
2013-05-01 17:52:00,37.9,33.2,30.28,NW,326,1.0,11.0,83,0.00,,OVC024,0.10,VWS V12.07,2013-05-01 22:52:00,
2013-05-01 17:54:00,37.9,33.2,30.28,NW,305,1.0,11.0,83,0.00,,OVC024,0.10,VWS V12.07,2013-05-01 22:54:00,
2013-05-01 17:55:00,37.8,33.1,30.28,NW,304,2.0,11.0,83,0.00,,OVC024,0.10,VWS V12.07,2013-05-01 22:55:00,
2013-05-01 17:57:00,37.6,32.9,30.28,North,9,0.0,11.0,83,0.00,,OVC024,0.10,VWS V12.07,2013-05-01 22:57:00,
2013-05-01 17:59:00,37.5,33.1,30.30,WNW,300,0.0,11.0,84,0.00,,OVC024,0.10,VWS V12.07,2013-05-01 22:59:00,
2013-05-01 18:00:00,37.5,32.8,30.30,NW,305,2.0,11.0,83,0.00,,OVC024,0.10,VWS V12.07,2013-05-01 23:00:00,
2013-05-01 18:01:00,37.3,32.6,30.30,NW,310,1.0,11.0,83,0.00,,OVC024,0.10,VWS V12.07,2013-05-01 23:01:00,
2013-05-01 18:02:00,37.3,32.9,30.30,NNW,334,0.0,11.0,84,0.00,,OVC024,0.10,VWS V12.07,2013-05-01 23:02:00,
2013-05-01 18:03:00,37.2,32.8,30.30,WNW,285,1.0,11.0,84,0.00,,OVC024,0.10,VWS V12.07,2013-05-01 23:03:00,
2013-05-01 18:05:00,37.2,32.8,30.30,NNW,342,1.0,11.0,84,0.00,,OVC024,0.10,VWS V12.07,2013-05-01 23:05:00,
2013-05-01 18:06:00,37.0,32.6,30.30,NNW,342,1.0,11.0,84,0.00,,OVC024,0.10,VWS V12.07,2013-05-01 23:06:00,
2013-05-01 18:08:00,37.0,32.6,30.30,NNE,31,0.0,11.0,84,0.00,,OVC024,0.10,VWS V12.07,2013-05-01 23:08:00,
2013-05-01 18:09:00,37.0,32.6,30.30,NNE,31,0.0,11.0,84,0.00,,OVC024,0.10,VWS V12.07,2013-05-01 23:09:00,
2013-05-01 18:10:00,37.8,33.1,30.28,NW,305,1.0,6.0,83,0.00,,OVC024,0.10,VWS V12.07,2013-05-01 23:10:00,
2013-05-01 18:11:00,36.9,32.5,30.30,North,0,0.0,11.0,84,0.00,,OVC024,0.10,VWS V12.07,2013-05-01 23:11:00,
2013-05-01 18:13:00,36.8,32.1,30.30,NNW,346,0.0,11.0,83,0.00,,OVC024,0.10,VWS V12.07,2013-05-01 23:13:00,
2013-05-01 18:14:00,36.6,31.9,30.30,NE,39,1.0,11.0,83,0.00,,OVC024,0.10,VWS V12.07,2013-05-01 23:14:00,
2013-05-01 18:16:00,36.6,32.2,30.30,NE,39,0.0,11.0,84,0.00,,OVC024,0.10,VWS V12.07,2013-05-01 23:16:00,
2013-05-01 18:17:00,36.6,32.2,30.30,NE,39,0.0,11.0,84,0.00,,OVC024,0.10,VWS V12.07,2013-05-01 23:17:00,
2013-05-01 18:18:00,36.6,32.2,30.30,WNW,285,0.0,11.0,84,0.00,,OVC024,0.10,VWS V12.07,2013-05-01 23:18:00,
2013-05-01 18:19:00,36.5,32.1,30.30,WNW,285,0.0,11.0,84,0.00,,OVC024,0.10,VWS V12.07,2013-05-01 23:19:00,
2013-05-01 18:20:00,37.2,32.8,30.30,NNW,345,0.0,4.0,84,0.00,,OVC024,0.10,VWS V12.07,2013-05-01 23:20:00,
2013-05-01 18:21:00,36.5,32.1,30.30,WNW,285,1.0,11.0,84,0.00,,OVC024,0.10,VWS V12.07,2013-05-01 23:21:00,
2013-05-01 18:22:00,36.5,32.1,30.30,WNW,285,1.0,11.0,84,0.00,,OVC024,0.10,VWS V12.07,2013-05-01 23:22:00,
2013-05-01 18:24:00,36.5,32.1,30.30,West,271,0.0,11.0,84,0.00,,OVC024,0.10,VWS V12.07,2013-05-01 23:24:00,
2013-05-01 18:26:00,36.5,32.1,30.30,NW,324,0.0,11.0,84,0.00,,OVC024,0.10,VWS V12.07,2013-05-01 23:26:00,
2013-05-01 18:27:00,36.5,32.1,30.30,NW,323,0.0,11.0,84,0.00,,OVC024,0.10,VWS V12.07,2013-05-01 23:27:00,
2013-05-01 18:28:00,36.5,32.1,30.30,NW,323,0.0,11.0,84,0.00,,OVC024,0.10,VWS V12.07,2013-05-01 23:28:00,
2013-05-01 18:29:00,36.5,32.1,30.30,North,356,1.0,11.0,84,0.00,,OVC024,0.10,VWS V12.07,2013-05-01 23:29:00,
2013-05-01 18:30:00,36.6,31.9,30.30,NE,39,0.0,6.0,83,0.00,,OVC024,0.10,VWS V12.07,2013-05-01 23:30:00,
2013-05-01 18:32:00,36.3,31.6,30.30,NW,310,1.0,11.0,83,0.00,,OVC024,0.10,VWS V12.07,2013-05-01 23:32:00,
2013-05-01 18:33:00,36.3,31.6,30.30,NW,310,0.0,11.0,83,0.00,,OVC024,0.10,VWS V12.07,2013-05-01 23:33:00,
2013-05-01 18:34:00,36.3,31.6,30.30,NNW,332,4.0,11.0,83,0.00,,OVC024,0.10,VWS V12.07,2013-05-01 23:34:00,
2013-05-01 18:35:00,36.3,31.6,30.30,NNW,332,3.0,11.0,83,0.00,,OVC024,0.10,VWS V12.07,2013-05-01 23:35:00,
2013-05-01 18:37:00,36.2,31.5,30.30,North,357,0.0,11.0,83,0.00,,OVC024,0.10,VWS V12.07,2013-05-01 23:37:00,
2013-05-01 18:38:00,36.0,31.4,30.30,North,357,0.0,11.0,83,0.00,,OVC024,0.10,VWS V12.07,2013-05-01 23:38:00,
2013-05-01 18:40:00,36.0,31.4,30.30,North,357,0.0,11.0,83,0.00,,OVC024,0.10,VWS V12.07,2013-05-01 23:40:00,
2013-05-01 18:41:00,36.0,31.4,30.30,NNE,32,2.0,11.0,83,0.00,,OVC024,0.10,VWS V12.07,2013-05-01 23:41:00,
2013-05-01 18:43:00,36.0,31.4,30.30,NW,324,0.0,11.0,83,0.00,,OVC024,0.10,VWS V12.07,2013-05-01 23:43:00,
2013-05-01 18:44:00,36.0,31.4,30.30,NW,324,0.0,11.0,83,0.00,,OVC024,0.10,VWS V12.07,2013-05-01 23:44:00,
2013-05-01 18:46:00,36.0,31.4,30.30,NNE,17,1.0,11.0,83,0.00,,OVC024,0.10,VWS V12.07,2013-05-01 23:46:00,
2013-05-01 18:48:00,35.9,31.2,30.30,NNW,333,0.0,11.0,83,0.00,,OVC024,0.10,VWS V12.07,2013-05-01 23:48:00,
2013-05-01 18:49:00,35.9,31.2,30.30,NW,315,1.0,11.0,83,0.00,,OVC024,0.10,VWS V12.07,2013-05-01 23:49:00,
2013-05-01 18:50:00,35.9,31.0,30.30,North,349,1.0,11.0,82,0.00,,OVC024,0.10,VWS V12.07,2013-05-01 23:50:00,
2013-05-01 18:51:00,35.8,30.9,30.30,North,349,1.0,11.0,82,0.00,,OVC024,0.10,VWS V12.07,2013-05-01 23:51:00,
2013-05-01 18:53:00,35.8,30.9,30.30,NW,309,2.0,11.0,82,0.00,,OVC024,0.10,VWS V12.07,2013-05-01 23:53:00,
2013-05-01 18:54:00,35.8,30.9,30.30,NNW,328,1.0,11.0,82,0.00,,OVC024,0.10,VWS V12.07,2013-05-01 23:54:00,
2013-05-01 18:56:00,35.6,30.7,30.30,West,273,9.0,11.0,82,0.00,,OVC024,0.10,VWS V12.07,2013-05-01 23:56:00,
2013-05-01 18:57:00,35.5,30.3,30.30,NW,321,0.0,11.0,81,0.00,,OVC024,0.10,VWS V12.07,2013-05-01 23:57:00,
2013-05-01 18:59:00,35.3,30.1,30.31,North,357,0.0,11.0,81,0.00,,OVC024,0.10,VWS V12.07,2013-05-01 23:59:00,
2013-05-01 19:00:00,35.3,30.1,30.31,North,357,0.0,11.0,81,0.00,,OVC024,0.10,VWS V12.07,2013-05-02 00:00:00,
2013-05-01 19:01:00,35.3,30.1,30.31,NNE,33,2.0,11.0,81,0.00,,OVC024,0.10,VWS V12.07,2013-05-02 00:01:00,
2013-05-01 19:02:00,35.3,30.1,30.31,North,349,0.0,11.0,81,0.00,,OVC024,0.10,VWS V12.07,2013-05-02 00:02:00,
2013-05-01 19:05:00,35.2,30.0,30.31,WNW,291,1.0,11.0,81,0.00,,OVC024,0.10,VWS V12.07,2013-05-02 00:05:00,
2013-05-01 19:06:00,35.0,29.8,30.31,WNW,291,0.0,11.0,81,0.00,,OVC024,0.10,VWS V12.07,2013-05-02 00:06:00,
2013-05-01 19:07:00,35.0,29.8,30.31,WNW,291,1.0,11.0,81,0.00,,OVC024,0.10,VWS V12.07,2013-05-02 00:07:00,
2013-05-01 19:08:00,35.0,29.8,30.31,WNW,286,1.0,11.0,81,0.00,,OVC024,0.10,VWS V12.07,2013-05-02 00:08:00,
2013-05-01 19:10:00,34.9,29.7,30.31,WNW,300,0.0,11.0,81,0.00,,OVC024,0.10,VWS V12.07,2013-05-02 00:10:00,
2013-05-01 19:11:00,34.9,29.7,30.31,WNW,300,0.0,11.0,81,0.00,,OVC024,0.10,VWS V12.07,2013-05-02 00:11:00,
2013-05-01 19:12:00,34.9,30.0,30.31,WNW,300,0.0,11.0,82,0.00,,OVC024,0.10,VWS V12.07,2013-05-02 00:12:00,
2013-05-01 19:14:00,34.9,30.0,30.32,WNW,301,1.0,11.0,82,0.00,,OVC024,0.10,VWS V12.07,2013-05-02 00:14:00,
2013-05-01 19:15:00,34.9,29.7,30.32,NW,326,2.0,11.0,81,0.00,,OVC024,0.10,VWS V12.07,2013-05-02 00:15:00,
2013-05-01 19:16:00,34.7,29.5,30.32,NW,326,0.0,11.0,81,0.00,,OVC024,0.10,VWS V12.07,2013-05-02 00:16:00,
2013-05-01 19:17:00,34.7,29.5,30.32,NW,326,0.0,11.0,81,0.00,,OVC024,0.10,VWS V12.07,2013-05-02 00:17:00,
2013-05-01 19:19:00,34.7,29.5,30.32,NNW,340,0.0,11.0,81,0.00,,OVC024,0.10,VWS V12.07,2013-05-02 00:19:00,
2013-05-01 19:20:00,34.6,29.4,30.32,North,0,1.0,11.0,81,0.00,,OVC024,0.10,VWS V12.07,2013-05-02 00:20:00,
2013-05-01 19:21:00,34.6,29.4,30.32,NNW,331,1.0,11.0,81,0.00,,OVC024,0.10,VWS V12.07,2013-05-02 00:21:00,
2013-05-01 19:22:00,34.6,29.4,30.32,NNW,331,0.0,11.0,81,0.00,,OVC024,0.10,VWS V12.07,2013-05-02 00:22:00,
2013-05-01 19:24:00,34.4,29.2,30.32,NNW,331,1.0,11.0,81,0.00,,OVC024,0.10,VWS V12.07,2013-05-02 00:24:00,
2013-05-01 19:25:00,34.4,29.5,30.32,NW,323,0.0,11.0,82,0.00,,OVC024,0.10,VWS V12.07,2013-05-02 00:25:00,
2013-05-01 19:26:00,34.4,29.5,30.32,NW,323,1.0,11.0,82,0.00,,OVC024,0.10,VWS V12.07,2013-05-02 00:26:00,
2013-05-01 19:27:00,34.3,29.4,30.32,NNW,331,0.0,11.0,82,0.00,,OVC024,0.10,VWS V12.07,2013-05-02 00:27:00,
2013-05-01 19:28:00,34.3,29.4,30.32,NNE,15,2.0,11.0,82,0.00,,OVC024,0.10,VWS V12.07,2013-05-02 00:28:00,
2013-05-01 19:29:00,34.3,29.4,30.32,NNE,17,3.0,11.0,82,0.00,,OVC024,0.10,VWS V12.07,2013-05-02 00:29:00,
2013-05-01 19:30:00,34.1,29.2,30.32,North,358,1.0,11.0,82,0.00,,OVC024,0.10,VWS V12.07,2013-05-02 00:30:00,
2013-05-01 19:31:00,34.1,29.2,30.32,North,0,0.0,11.0,82,0.00,,OVC024,0.10,VWS V12.07,2013-05-02 00:31:00,
2013-05-01 19:32:00,34.1,29.2,30.32,North,0,0.0,11.0,82,0.00,,OVC024,0.10,VWS V12.07,2013-05-02 00:32:00,
2013-05-01 19:33:00,34.1,29.5,30.32,North,4,0.0,11.0,83,0.00,,OVC024,0.10,VWS V12.07,2013-05-02 00:33:00,
2013-05-01 19:34:00,34.1,29.5,30.32,North,4,0.0,11.0,83,0.00,,OVC024,0.10,VWS V12.07,2013-05-02 00:34:00,
2013-05-01 19:35:00,34.1,29.5,30.32,North,4,0.0,11.0,83,0.00,,OVC024,0.10,VWS V12.07,2013-05-02 00:35:00,
2013-05-01 19:36:00,34.0,29.4,30.32,North,4,1.0,11.0,83,0.00,,OVC024,0.10,VWS V12.07,2013-05-02 00:36:00,
2013-05-01 19:37:00,34.0,29.4,30.32,NE,41,3.0,11.0,83,0.00,,OVC024,0.10,VWS V12.07,2013-05-02 00:37:00,
2013-05-01 19:38:00,34.0,29.4,30.32,NNE,31,0.0,11.0,83,0.00,,OVC024,0.10,VWS V12.07,2013-05-02 00:38:00,
2013-05-01 19:39:00,34.0,29.4,30.32,NNE,31,0.0,11.0,83,0.00,,OVC024,0.10,VWS V12.07,2013-05-02 00:39:00,
2013-05-01 19:40:00,34.0,29.4,30.32,NNE,31,0.0,11.0,83,0.00,,OVC024,0.10,VWS V12.07,2013-05-02 00:40:00,
2013-05-01 19:42:00,34.0,29.4,30.32,NNE,31,0.0,11.0,83,0.00,,OVC024,0.10,VWS V12.07,2013-05-02 00:42:00,
2013-05-01 19:44:00,34.0,29.4,30.34,NNE,31,0.0,11.0,83,0.00,,OVC024,0.10,VWS V12.07,2013-05-02 00:44:00,
2013-05-01 19:45:00,34.0,29.7,30.34,NNE,33,0.0,11.0,84,0.00,,OVC024,0.10,VWS V12.07,2013-05-02 00:45:00,
2013-05-01 19:46:00,34.0,29.7,30.34,NNE,33,0.0,11.0,84,0.00,,OVC024,0.10,VWS V12.07,2013-05-02 00:46:00,
2013-05-01 19:47:00,34.0,29.7,30.34,NNE,23,3.0,11.0,84,0.00,,OVC024,0.10,VWS V12.07,2013-05-02 00:47:00,
2013-05-01 19:49:00,33.8,29.5,30.34,NNW,330,1.0,11.0,84,0.00,,OVC024,0.10,VWS V12.07,2013-05-02 00:49:00,
2013-05-01 19:50:00,33.8,29.5,30.34,NW,316,2.0,11.0,84,0.00,,OVC024,0.10,VWS V12.07,2013-05-02 00:50:00,
2013-05-01 19:51:00,33.7,29.7,30.34,NW,316,0.0,11.0,85,0.00,,OVC024,0.10,VWS V12.07,2013-05-02 00:51:00,
2013-05-01 19:52:00,33.7,29.7,30.34,NW,316,1.0,11.0,85,0.00,,OVC024,0.10,VWS V12.07,2013-05-02 00:52:00,
2013-05-01 19:53:00,33.7,29.7,30.34,NNE,25,1.0,11.0,85,0.00,,OVC024,0.10,VWS V12.07,2013-05-02 00:53:00,
2013-05-01 19:55:00,33.5,29.8,30.34,NNW,334,3.0,11.0,86,0.00,,OVC024,0.10,VWS V12.07,2013-05-02 00:55:00,
2013-05-01 19:56:00,33.5,29.8,30.34,WNW,286,1.0,11.0,86,0.00,,OVC024,0.10,VWS V12.07,2013-05-02 00:56:00,
2013-05-01 19:57:00,33.4,29.7,30.34,North,357,2.0,11.0,86,0.00,,OVC024,0.10,VWS V12.07,2013-05-02 00:57:00,
2013-05-01 19:58:00,33.4,29.7,30.35,North,357,0.0,11.0,86,0.00,,OVC024,0.10,VWS V12.07,2013-05-02 00:58:00,
2013-05-01 20:00:00,33.4,29.7,30.35,North,357,0.0,11.0,86,0.00,,OVC024,0.10,VWS V12.07,2013-05-02 01:00:00,
2013-05-01 20:01:00,33.2,29.5,30.35,NNE,24,1.0,11.0,86,0.00,,OVC024,0.10,VWS V12.07,2013-05-02 01:01:00,
2013-05-01 20:02:00,33.2,29.5,30.35,NNE,16,0.0,11.0,86,0.00,,OVC024,0.10,VWS V12.07,2013-05-02 01:02:00,
2013-05-01 20:04:00,33.2,29.8,30.35,NNE,16,1.0,11.0,87,0.00,,OVC024,0.10,VWS V12.07,2013-05-02 01:04:00,
2013-05-01 20:05:00,33.2,29.8,30.35,NNE,16,0.0,11.0,87,0.00,,OVC024,0.10,VWS V12.07,2013-05-02 01:05:00,
2013-05-01 20:06:00,33.1,29.7,30.35,NNE,16,0.0,11.0,87,0.00,,OVC024,0.10,VWS V12.07,2013-05-02 01:06:00,
2013-05-01 20:07:00,33.1,29.7,30.35,SW,229,0.0,11.0,87,0.00,,OVC024,0.10,VWS V12.07,2013-05-02 01:07:00,
2013-05-01 20:08:00,33.1,29.7,30.35,SW,229,0.0,11.0,87,0.00,,OVC024,0.10,VWS V12.07,2013-05-02 01:08:00,
2013-05-01 20:09:00,33.1,29.7,30.35,SW,229,2.0,11.0,87,0.00,,OVC024,0.10,VWS V12.07,2013-05-02 01:09:00,
2013-05-01 20:10:00,33.1,29.9,30.35,SW,229,0.0,11.0,88,0.00,,OVC024,0.10,VWS V12.07,2013-05-02 01:10:00,
2013-05-01 20:11:00,33.1,29.9,30.35,SW,229,0.0,11.0,88,0.00,,OVC024,0.10,VWS V12.07,2013-05-02 01:11:00,
2013-05-01 20:12:00,33.1,29.9,30.35,SW,229,0.0,11.0,88,0.00,,OVC024,0.10,VWS V12.07,2013-05-02 01:12:00,
2013-05-01 20:13:00,33.1,30.2,30.35,SW,231,1.0,11.0,89,0.00,,OVC024,0.10,VWS V12.07,2013-05-02 01:13:00,
2013-05-01 20:14:00,32.9,30.0,30.35,SW,231,0.0,11.0,89,0.00,,OVC024,0.10,VWS V12.07,2013-05-02 01:14:00,
2013-05-01 20:16:00,32.9,30.0,30.35,SW,231,0.0,11.0,89,0.00,,OVC024,0.10,VWS V12.07,2013-05-02 01:16:00,
2013-05-01 20:17:00,32.9,30.0,30.35,SW,231,0.0,11.0,89,0.00,,OVC024,0.10,VWS V12.07,2013-05-02 01:17:00,
2013-05-01 20:18:00,32.9,30.0,30.35,SW,231,1.0,11.0,89,0.00,,OVC024,0.10,VWS V12.07,2013-05-02 01:18:00,
2013-05-01 20:20:00,32.8,29.9,30.35,SW,232,0.0,11.0,89,0.00,,OVC024,0.10,VWS V12.07,2013-05-02 01:20:00,
2013-05-01 20:22:00,32.8,30.2,30.35,NNE,14,1.0,11.0,90,0.00,,OVC024,0.10,VWS V12.07,2013-05-02 01:22:00,
2013-05-01 20:24:00,32.7,30.1,30.35,North,10,0.0,11.0,90,0.00,,OVC024,0.10,VWS V12.07,2013-05-02 01:24:00,
2013-05-01 20:25:00,32.7,30.1,30.35,NNE,15,0.0,11.0,90,0.00,,OVC024,0.10,VWS V12.07,2013-05-02 01:25:00,
2013-05-01 20:27:00,32.7,30.4,30.35,North,352,0.0,11.0,91,0.00,,OVC024,0.10,VWS V12.07,2013-05-02 01:27:00,
2013-05-01 20:28:00,32.5,30.2,30.35,North,352,0.0,11.0,91,0.00,,OVC024,0.10,VWS V12.07,2013-05-02 01:28:00,
2013-05-01 20:29:00,32.5,30.2,30.35,West,272,0.0,11.0,91,0.00,,OVC024,0.10,VWS V12.07,2013-05-02 01:29:00,
2013-05-01 20:30:00,32.5,30.2,30.35,North,358,3.0,11.0,91,0.00,,OVC024,0.10,VWS V12.07,2013-05-02 01:30:00,
2013-05-01 20:32:00,32.4,30.1,30.35,North,4,1.0,11.0,91,0.00,,OVC024,0.10,VWS V12.07,2013-05-02 01:32:00,
2013-05-01 20:33:00,32.4,30.1,30.35,North,6,3.0,11.0,91,0.00,,OVC024,0.10,VWS V12.07,2013-05-02 01:33:00,
2013-05-01 20:35:00,32.4,30.3,30.35,North,6,0.0,11.0,92,0.00,,OVC024,0.10,VWS V12.07,2013-05-02 01:35:00,
2013-05-01 20:37:00,32.4,30.3,30.35,North,6,1.0,11.0,92,0.00,,OVC024,0.10,VWS V12.07,2013-05-02 01:37:00,
2013-05-01 20:38:00,32.4,30.3,30.35,North,6,1.0,11.0,92,0.00,,OVC024,0.10,VWS V12.07,2013-05-02 01:38:00,
2013-05-01 20:40:00,32.4,30.3,30.35,North,6,0.0,11.0,92,0.00,,OVC024,0.10,VWS V12.07,2013-05-02 01:40:00,
2013-05-01 20:42:00,32.4,30.3,30.35,North,6,1.0,11.0,92,0.00,,OVC024,0.10,VWS V12.07,2013-05-02 01:42:00,
2013-05-01 20:43:00,32.4,30.3,30.35,North,6,2.0,11.0,92,0.00,,OVC024,0.10,VWS V12.07,2013-05-02 01:43:00,
2013-05-01 20:45:00,32.2,30.4,30.36,NNW,338,4.0,11.0,93,0.00,,OVC024,0.10,VWS V12.07,2013-05-02 01:45:00,
2013-05-01 20:46:00,32.2,30.4,30.36,NNW,338,3.0,11.0,93,0.00,,OVC024,0.10,VWS V12.07,2013-05-02 01:46:00,
2013-05-01 20:47:00,32.2,30.4,30.36,NNW,338,0.0,11.0,93,0.00,,OVC024,0.10,VWS V12.07,2013-05-02 01:47:00,
2013-05-01 20:48:00,32.2,30.4,30.36,NNW,338,0.0,11.0,93,0.00,,OVC024,0.10,VWS V12.07,2013-05-02 01:48:00,
2013-05-01 20:49:00,32.2,30.4,30.36,NNW,338,0.0,11.0,93,0.00,,OVC024,0.10,VWS V12.07,2013-05-02 01:49:00,
2013-05-01 20:50:00,32.4,30.3,30.35,North,6,0.0,4.0,92,0.00,,OVC024,0.10,VWS V12.07,2013-05-02 01:50:00,
2013-05-01 20:51:00,32.2,30.4,30.36,NNW,338,1.0,11.0,93,0.00,,OVC024,0.10,VWS V12.07,2013-05-02 01:51:00,
2013-05-01 20:52:00,32.2,30.4,30.36,North,6,0.0,11.0,93,0.00,,OVC024,0.10,VWS V12.07,2013-05-02 01:52:00,
2013-05-01 20:54:00,32.2,30.7,30.36,NNW,345,1.0,11.0,94,0.00,,OVC024,0.10,VWS V12.07,2013-05-02 01:54:00,
2013-05-01 20:56:00,32.2,30.7,30.36,NNE,17,0.0,11.0,94,0.00,,OVC024,0.10,VWS V12.07,2013-05-02 01:56:00,
2013-05-01 20:57:00,32.2,30.7,30.36,WNW,297,0.0,11.0,94,0.00,,OVC024,0.10,VWS V12.07,2013-05-02 01:57:00,
2013-05-01 20:58:00,32.2,30.7,30.36,North,0,0.0,11.0,94,0.00,,OVC024,0.10,VWS V12.07,2013-05-02 01:58:00,
2013-05-01 20:59:00,32.2,30.7,30.36,North,0,2.0,11.0,94,0.00,,OVC024,0.10,VWS V12.07,2013-05-02 01:59:00,
2013-05-01 21:00:00,32.2,30.7,30.36,North,0,1.0,11.0,94,0.00,,OVC024,0.10,VWS V12.07,2013-05-02 02:00:00,
2013-05-01 21:01:00,32.2,30.7,30.36,North,0,3.0,11.0,94,0.00,,OVC024,0.10,VWS V12.07,2013-05-02 02:01:00,
2013-05-01 21:02:00,32.1,30.6,30.36,North,0,2.0,11.0,94,0.00,,OVC024,0.10,VWS V12.07,2013-05-02 02:02:00,
2013-05-01 21:03:00,32.1,30.6,30.36,NNW,347,1.0,11.0,94,0.00,,OVC024,0.10,VWS V12.07,2013-05-02 02:03:00,
2013-05-01 21:05:00,32.1,30.6,30.36,NNW,347,1.0,11.0,94,0.00,,OVC024,0.10,VWS V12.07,2013-05-02 02:05:00,
2013-05-01 21:06:00,32.1,30.6,30.36,NNW,347,0.0,11.0,94,0.00,,OVC024,0.10,VWS V12.07,2013-05-02 02:06:00,
2013-05-01 21:07:00,32.1,30.6,30.36,North,0,1.0,11.0,94,0.00,,OVC024,0.10,VWS V12.07,2013-05-02 02:07:00,
2013-05-01 21:08:00,32.1,30.6,30.36,North,0,1.0,11.0,94,0.00,,OVC024,0.10,VWS V12.07,2013-05-02 02:08:00,
2013-05-01 21:10:00,32.1,30.6,30.36,North,352,0.0,11.0,94,0.00,,OVC024,0.10,VWS V12.07,2013-05-02 02:10:00,
2013-05-01 21:12:00,32.1,30.6,30.36,North,351,0.0,11.0,94,0.00,,OVC024,0.10,VWS V12.07,2013-05-02 02:12:00,
2013-05-01 21:13:00,32.1,30.6,30.36,North,351,0.0,11.0,94,0.00,,OVC024,0.10,VWS V12.07,2013-05-02 02:13:00,
2013-05-01 21:14:00,32.1,30.8,30.36,NW,308,0.0,11.0,95,0.00,,OVC024,0.10,VWS V12.07,2013-05-02 02:14:00,
2013-05-01 21:15:00,32.1,30.8,30.36,NW,308,0.0,11.0,95,0.00,,OVC024,0.10,VWS V12.07,2013-05-02 02:15:00,
2013-05-01 21:16:00,32.1,30.8,30.36,NW,309,0.0,11.0,95,0.00,,OVC024,0.10,VWS V12.07,2013-05-02 02:16:00,
2013-05-01 21:17:00,32.1,30.8,30.36,North,350,2.0,11.0,95,0.00,,OVC024,0.10,VWS V12.07,2013-05-02 02:17:00,
2013-05-01 21:18:00,32.1,30.8,30.36,North,0,2.0,11.0,95,0.00,,OVC024,0.10,VWS V12.07,2013-05-02 02:18:00,
2013-05-01 21:19:00,32.1,31.1,30.36,North,0,1.0,11.0,96,0.00,,OVC024,0.10,VWS V12.07,2013-05-02 02:19:00,
2013-05-01 21:20:00,32.1,30.6,30.36,NNW,347,0.0,4.0,94,0.00,,OVC024,0.10,VWS V12.07,2013-05-02 02:20:00,
2013-05-01 21:21:00,32.1,30.8,30.36,North,0,0.0,11.0,95,0.00,,OVC024,0.10,VWS V12.07,2013-05-02 02:21:00,
2013-05-01 21:22:00,32.1,30.8,30.36,North,0,0.0,11.0,95,0.00,,OVC024,0.10,VWS V12.07,2013-05-02 02:22:00,
2013-05-01 21:23:00,32.1,30.8,30.36,North,0,0.0,11.0,95,0.00,,OVC024,0.10,VWS V12.07,2013-05-02 02:23:00,
2013-05-01 21:25:00,32.1,30.8,30.36,WSW,257,0.0,11.0,95,0.00,,OVC024,0.10,VWS V12.07,2013-05-02 02:25:00,
2013-05-01 21:26:00,32.1,30.8,30.36,ENE,74,1.0,11.0,95,0.00,,OVC024,0.10,VWS V12.07,2013-05-02 02:26:00,
2013-05-01 21:28:00,32.1,30.8,30.36,North,11,0.0,11.0,95,0.00,,OVC024,0.10,VWS V12.07,2013-05-02 02:28:00,
2013-05-01 21:29:00,32.1,30.8,30.38,NNW,347,1.0,11.0,95,0.00,,OVC024,0.10,VWS V12.07,2013-05-02 02:29:00,
2013-05-01 21:30:00,32.1,30.8,30.38,NNW,347,0.0,11.0,95,0.00,,OVC024,0.10,VWS V12.07,2013-05-02 02:30:00,
2013-05-01 21:31:00,32.1,30.8,30.38,NNW,347,0.0,11.0,95,0.00,,OVC024,0.10,VWS V12.07,2013-05-02 02:31:00,
2013-05-01 21:32:00,32.1,30.8,30.38,NNW,347,0.0,11.0,95,0.00,,OVC024,0.10,VWS V12.07,2013-05-02 02:32:00,
2013-05-01 21:33:00,32.2,30.9,30.38,NNW,347,0.0,11.0,95,0.00,,OVC024,0.10,VWS V12.07,2013-05-02 02:33:00,
2013-05-01 21:35:00,32.2,30.9,30.38,NNW,348,1.0,11.0,95,0.00,,OVC024,0.10,VWS V12.07,2013-05-02 02:35:00,
2013-05-01 21:36:00,32.2,30.9,30.38,NNW,348,1.0,11.0,95,0.00,,OVC024,0.10,VWS V12.07,2013-05-02 02:36:00,
2013-05-01 21:37:00,32.2,30.9,30.38,NNW,348,0.0,11.0,95,0.00,,OVC024,0.10,VWS V12.07,2013-05-02 02:37:00,
2013-05-01 21:38:00,32.1,30.8,30.38,NNE,17,3.0,11.0,95,0.00,,OVC024,0.10,VWS V12.07,2013-05-02 02:38:00,
2013-05-01 21:40:00,32.1,30.8,30.38,NE,47,1.0,11.0,95,0.00,,OVC024,0.10,VWS V12.07,2013-05-02 02:40:00,
2013-05-01 21:42:00,32.1,30.8,30.38,North,358,0.0,11.0,95,0.00,,OVC024,0.10,VWS V12.07,2013-05-02 02:42:00,
2013-05-01 21:43:00,32.1,30.6,30.38,NNE,23,1.0,11.0,94,0.00,,OVC024,0.10,VWS V12.07,2013-05-02 02:43:00,
2013-05-01 21:45:00,32.1,30.6,30.38,NE,36,0.0,11.0,94,0.00,,OVC024,0.10,VWS V12.07,2013-05-02 02:45:00,
2013-05-01 21:46:00,32.1,30.6,30.38,NE,36,0.0,11.0,94,0.00,,OVC024,0.10,VWS V12.07,2013-05-02 02:46:00,
2013-05-01 21:48:00,32.1,30.8,30.38,NE,36,0.0,11.0,95,0.00,,OVC024,0.10,VWS V12.07,2013-05-02 02:48:00,
2013-05-01 21:49:00,32.2,30.9,30.38,NE,36,0.0,11.0,95,0.00,,OVC024,0.10,VWS V12.07,2013-05-02 02:49:00,
2013-05-01 21:50:00,32.2,30.9,30.38,NE,36,0.0,11.0,95,0.00,,OVC024,0.10,VWS V12.07,2013-05-02 02:50:00,
2013-05-01 21:51:00,32.2,30.9,30.38,NE,36,0.0,11.0,95,0.00,,OVC024,0.10,VWS V12.07,2013-05-02 02:51:00,
2013-05-01 21:53:00,32.2,30.9,30.38,NW,323,2.0,11.0,95,0.00,,OVC024,0.10,VWS V12.07,2013-05-02 02:53:00,
2013-05-01 21:54:00,32.2,30.9,30.38,NW,324,0.0,11.0,95,0.00,,OVC024,0.10,VWS V12.07,2013-05-02 02:54:00,
2013-05-01 21:55:00,32.2,30.9,30.38,NE,49,3.0,11.0,95,0.00,,OVC024,0.10,VWS V12.07,2013-05-02 02:55:00,
2013-05-01 21:56:00,32.2,30.9,30.38,North,0,2.0,11.0,95,0.00,,OVC024,0.10,VWS V12.07,2013-05-02 02:56:00,
2013-05-01 21:59:00,32.2,30.7,30.37,NNW,347,1.0,11.0,94,0.00,,OVC024,0.10,VWS V12.07,2013-05-02 02:59:00,
2013-05-01 22:00:00,32.1,30.6,30.38,NE,36,1.0,8.0,94,0.00,,OVC024,0.10,VWS V12.07,2013-05-02 03:00:00,
2013-05-01 22:01:00,32.2,30.7,30.37,NNW,347,0.0,11.0,94,0.00,,OVC024,0.10,VWS V12.07,2013-05-02 03:01:00,
2013-05-01 22:04:00,32.2,30.9,30.37,NNW,347,1.0,11.0,95,0.00,,OVC024,0.10,VWS V12.07,2013-05-02 03:04:00,
2013-05-01 22:06:00,32.2,30.7,30.37,NNW,347,1.0,11.0,94,0.00,,OVC024,0.10,VWS V12.07,2013-05-02 03:06:00,
2013-05-01 22:09:00,32.2,30.7,30.37,North,0,3.0,11.0,94,0.00,,OVC024,0.10,VWS V12.07,2013-05-02 03:09:00,
2013-05-01 22:10:00,32.2,30.7,30.37,North,4,2.0,11.0,94,0.00,,OVC024,0.10,VWS V12.07,2013-05-02 03:10:00,
2013-05-01 22:11:00,32.2,30.7,30.37,NNE,20,0.0,11.0,94,0.00,,OVC024,0.10,VWS V12.07,2013-05-02 03:11:00,
2013-05-01 22:15:00,32.2,30.7,30.38,NNE,20,0.0,11.0,94,0.00,,OVC024,0.10,VWS V12.07,2013-05-02 03:15:00,
2013-05-01 22:16:00,32.2,30.7,30.38,North,11,0.0,11.0,94,0.00,,OVC024,0.10,VWS V12.07,2013-05-02 03:16:00,
2013-05-01 22:17:00,32.2,30.7,30.38,North,11,0.0,11.0,94,0.00,,OVC024,0.10,VWS V12.07,2013-05-02 03:17:00,
2013-05-01 22:20:00,32.4,30.9,30.38,North,358,1.0,11.0,94,0.00,,OVC024,0.10,VWS V12.07,2013-05-02 03:20:00,
2013-05-01 22:21:00,32.4,30.9,30.38,North,358,4.0,11.0,94,0.00,,OVC024,0.10,VWS V12.07,2013-05-02 03:21:00,
2013-05-01 22:22:00,32.4,30.9,30.38,North,0,2.0,11.0,94,0.00,,OVC024,0.10,VWS V12.07,2013-05-02 03:22:00,
2013-05-01 22:25:00,32.4,30.9,30.38,NNE,28,2.0,11.0,94,0.00,,OVC024,0.10,VWS V12.07,2013-05-02 03:25:00,
2013-05-01 22:26:00,32.4,30.9,30.38,NNW,335,1.0,11.0,94,0.00,,OVC024,0.10,VWS V12.07,2013-05-02 03:26:00,
2013-05-01 22:27:00,32.4,30.9,30.38,North,357,1.0,11.0,94,0.00,,OVC024,0.10,VWS V12.07,2013-05-02 03:27:00,
2013-05-01 22:30:00,32.4,30.9,30.37,NNE,20,6.0,11.0,94,0.00,,OVC024,0.10,VWS V12.07,2013-05-02 03:30:00,
2013-05-01 22:31:00,32.4,30.9,30.37,North,356,2.0,11.0,94,0.00,,OVC024,0.10,VWS V12.07,2013-05-02 03:31:00,
2013-05-01 22:32:00,32.4,30.9,30.37,North,356,2.0,11.0,94,0.00,,OVC024,0.10,VWS V12.07,2013-05-02 03:32:00,
2013-05-01 22:33:00,32.4,30.9,30.37,NW,310,1.0,11.0,94,0.00,,OVC024,0.10,VWS V12.07,2013-05-02 03:33:00,
2013-05-01 22:36:00,32.4,30.9,30.37,NW,316,3.0,11.0,94,0.00,,OVC024,0.10,VWS V12.07,2013-05-02 03:36:00,
2013-05-01 22:37:00,32.4,30.9,30.37,NW,321,3.0,11.0,94,0.00,,OVC024,0.10,VWS V12.07,2013-05-02 03:37:00,
2013-05-01 22:38:00,32.4,30.9,30.37,NW,321,0.0,11.0,94,0.00,,OVC024,0.10,VWS V12.07,2013-05-02 03:38:00,
2013-05-01 22:39:00,32.4,30.9,30.37,NW,321,2.0,11.0,94,0.00,,OVC024,0.10,VWS V12.07,2013-05-02 03:39:00,
2013-05-01 22:40:00,32.4,30.9,30.38,NE,43,4.0,4.0,94,0.00,,OVC024,0.10,VWS V12.07,2013-05-02 03:40:00,
2013-05-01 22:41:00,32.4,30.9,30.37,NW,320,1.0,11.0,94,0.00,,OVC024,0.10,VWS V12.07,2013-05-02 03:41:00,
2013-05-01 22:42:00,32.4,31.1,30.37,North,7,5.0,11.0,95,0.00,,OVC024,0.10,VWS V12.07,2013-05-02 03:42:00,
2013-05-01 22:43:00,32.4,31.1,30.36,NNE,27,0.0,11.0,95,0.00,,OVC024,0.10,VWS V12.07,2013-05-02 03:43:00,
2013-05-01 22:45:00,32.4,30.9,30.36,NNE,27,0.0,11.0,94,0.00,,OVC024,0.10,VWS V12.07,2013-05-02 03:45:00,
2013-05-01 22:46:00,32.4,31.1,30.36,NNE,27,1.0,11.0,95,0.00,,OVC024,0.10,VWS V12.07,2013-05-02 03:46:00,
2013-05-01 22:47:00,32.4,31.1,30.36,NE,48,1.0,11.0,95,0.00,,OVC024,0.10,VWS V12.07,2013-05-02 03:47:00,
2013-05-01 22:49:00,32.4,30.9,30.36,NE,37,2.0,11.0,94,0.00,,OVC024,0.10,VWS V12.07,2013-05-02 03:49:00,
2013-05-01 22:50:00,32.4,30.9,30.36,North,0,2.0,11.0,94,0.00,,OVC024,0.10,VWS V12.07,2013-05-02 03:50:00,
2013-05-01 22:51:00,32.4,30.9,30.36,NNW,337,0.0,11.0,94,0.00,,OVC024,0.10,VWS V12.07,2013-05-02 03:51:00,
2013-05-01 22:52:00,32.4,30.9,30.36,North,352,0.0,11.0,94,0.00,,OVC024,0.10,VWS V12.07,2013-05-02 03:52:00,
2013-05-01 22:53:00,32.4,30.9,30.36,North,352,0.0,11.0,94,0.00,,OVC024,0.10,VWS V12.07,2013-05-02 03:53:00,
2013-05-01 22:54:00,32.4,30.9,30.36,North,352,0.0,11.0,94,0.00,,OVC024,0.10,VWS V12.07,2013-05-02 03:54:00,
2013-05-01 22:55:00,32.4,30.9,30.36,NNE,16,2.0,11.0,94,0.00,,OVC024,0.10,VWS V12.07,2013-05-02 03:55:00,
2013-05-01 22:56:00,32.4,30.9,30.36,NNW,331,3.0,11.0,94,0.00,,OVC024,0.10,VWS V12.07,2013-05-02 03:56:00,
2013-05-01 22:58:00,32.4,30.9,30.36,NNW,331,0.0,11.0,94,0.00,,OVC024,0.10,VWS V12.07,2013-05-02 03:58:00,
2013-05-01 22:59:00,32.4,30.9,30.36,NNW,331,0.0,11.0,94,0.00,,OVC024,0.10,VWS V12.07,2013-05-02 03:59:00,
2013-05-01 23:00:00,32.4,30.9,30.36,NNE,20,2.0,11.0,94,0.00,,OVC024,0.10,VWS V12.07,2013-05-02 04:00:00,
2013-05-01 23:01:00,32.4,30.9,30.36,WNW,300,1.0,11.0,94,0.00,,OVC024,0.10,VWS V12.07,2013-05-02 04:01:00,
2013-05-01 23:02:00,32.4,30.9,30.36,North,4,2.0,11.0,94,0.00,,OVC024,0.10,VWS V12.07,2013-05-02 04:02:00,
2013-05-01 23:06:00,32.4,30.9,30.36,NNW,328,0.0,11.0,94,0.00,,OVC024,0.10,VWS V12.07,2013-05-02 04:06:00,
2013-05-01 23:07:00,32.4,30.9,30.36,NNW,328,1.0,11.0,94,0.00,,OVC024,0.10,VWS V12.07,2013-05-02 04:07:00,
2013-05-01 23:10:00,32.4,30.9,30.36,North,352,0.0,4.0,94,0.00,,OVC024,0.10,VWS V12.07,2013-05-02 04:10:00,
2013-05-01 23:11:00,32.4,30.9,30.36,NW,315,4.0,11.0,94,0.00,,OVC024,0.10,VWS V12.07,2013-05-02 04:11:00,
2013-05-01 23:12:00,32.4,30.9,30.36,NNE,12,1.0,11.0,94,0.00,,OVC024,0.10,VWS V12.07,2013-05-02 04:12:00,
2013-05-01 23:16:00,32.4,30.9,30.36,North,8,0.0,11.0,94,0.00,,OVC024,0.10,VWS V12.07,2013-05-02 04:16:00,
2013-05-01 23:17:00,32.4,30.9,30.36,North,8,0.0,11.0,94,0.00,,OVC024,0.10,VWS V12.07,2013-05-02 04:17:00,
2013-05-01 23:18:00,32.4,30.9,30.36,North,8,1.0,11.0,94,0.00,,OVC024,0.10,VWS V12.07,2013-05-02 04:18:00,
2013-05-01 23:20:00,32.4,30.9,30.36,NNW,328,1.0,7.0,94,0.00,,OVC024,0.10,VWS V12.07,2013-05-02 04:20:00,
2013-05-01 23:21:00,32.4,30.9,30.36,North,8,2.0,11.0,94,0.00,,OVC024,0.10,VWS V12.07,2013-05-02 04:21:00,
2013-05-01 23:22:00,32.4,30.9,30.36,North,0,1.0,11.0,94,0.00,,OVC024,0.10,VWS V12.07,2013-05-02 04:22:00,
2013-05-01 23:23:00,32.4,30.9,30.36,North,358,1.0,11.0,94,0.00,,OVC024,0.10,VWS V12.07,2013-05-02 04:23:00,
2013-05-01 23:26:00,32.4,30.9,30.36,North,352,0.0,11.0,94,0.00,,OVC024,0.10,VWS V12.07,2013-05-02 04:26:00,
2013-05-01 23:27:00,32.4,30.9,30.36,NNE,23,1.0,11.0,94,0.00,,OVC024,0.10,VWS V12.07,2013-05-02 04:27:00,
2013-05-01 23:28:00,32.4,30.9,30.36,North,0,0.0,11.0,94,0.00,,OVC024,0.10,VWS V12.07,2013-05-02 04:28:00,
2013-05-01 23:29:00,32.4,30.9,30.36,North,0,0.0,11.0,94,0.00,,OVC024,0.10,VWS V12.07,2013-05-02 04:29:00,
2013-05-01 23:30:00,32.4,30.9,30.36,North,0,3.0,6.0,94,0.00,,OVC024,0.10,VWS V12.07,2013-05-02 04:30:00,
2013-05-01 23:31:00,32.4,30.9,30.36,NW,321,4.0,11.0,94,0.00,,OVC024,0.10,VWS V12.07,2013-05-02 04:31:00,
2013-05-01 23:32:00,32.4,30.9,30.36,NW,321,0.0,11.0,94,0.00,,OVC024,0.10,VWS V12.07,2013-05-02 04:32:00,
2013-05-01 23:33:00,32.4,30.9,30.36,NW,321,0.0,11.0,94,0.00,,OVC024,0.10,VWS V12.07,2013-05-02 04:33:00,
2013-05-01 23:34:00,32.4,30.9,30.36,ENE,68,0.0,11.0,94,0.00,,OVC024,0.10,VWS V12.07,2013-05-02 04:34:00,
2013-05-01 23:36:00,32.4,30.9,30.36,North,0,3.0,11.0,94,0.00,,OVC024,0.10,VWS V12.07,2013-05-02 04:36:00,
2013-05-01 23:38:00,32.4,30.9,30.36,NNE,18,1.0,11.0,94,0.00,,OVC024,0.10,VWS V12.07,2013-05-02 04:38:00,
2013-05-01 23:39:00,32.4,30.9,30.36,NNE,18,1.0,11.0,94,0.00,,OVC024,0.10,VWS V12.07,2013-05-02 04:39:00,
2013-05-01 23:40:00,32.4,30.9,30.36,NNE,18,0.0,11.0,94,0.00,,OVC024,0.10,VWS V12.07,2013-05-02 04:40:00,
2013-05-01 23:42:00,32.4,30.9,30.36,NW,314,3.0,11.0,94,0.00,,OVC024,0.10,VWS V12.07,2013-05-02 04:42:00,
2013-05-01 23:43:00,32.4,30.9,30.36,North,352,0.0,11.0,94,0.00,,OVC024,0.10,VWS V12.07,2013-05-02 04:43:00,
2013-05-01 23:44:00,32.4,30.9,30.36,North,352,0.0,11.0,94,0.00,,OVC024,0.10,VWS V12.07,2013-05-02 04:44:00,
2013-05-01 23:45:00,32.4,30.9,30.36,North,352,0.0,11.0,94,0.00,,OVC024,0.00,VWS V12.07,2013-05-02 04:45:00,
2013-05-01 23:47:00,32.4,30.9,30.36,North,352,0.0,11.0,94,0.00,,OVC024,0.00,VWS V12.07,2013-05-02 04:47:00,
2013-05-01 23:48:00,32.4,30.9,30.36,North,352,0.0,11.0,94,0.00,,OVC024,0.00,VWS V12.07,2013-05-02 04:48:00,
2013-05-01 23:49:00,32.4,30.9,30.36,North,352,0.0,11.0,94,0.00,,OVC024,0.00,VWS V12.07,2013-05-02 04:49:00,
2013-05-01 23:50:00,32.4,30.9,30.36,North,352,1.0,11.0,94,0.00,,OVC024,0.00,VWS V12.07,2013-05-02 04:50:00,
2013-05-01 23:53:00,32.4,30.9,30.36,NNE,23,3.0,11.0,94,0.00,,OVC024,0.00,VWS V12.07,2013-05-02 04:53:00,
2013-05-01 23:54:00,32.4,30.9,30.36,NNE,28,4.0,11.0,94,0.00,,OVC024,0.00,VWS V12.07,2013-05-02 04:54:00,
2013-05-01 23:55:00,32.4,30.9,30.36,North,0,0.0,11.0,94,0.00,,OVC024,0.00,VWS V12.07,2013-05-02 04:55:00,
2013-05-01 23:58:00,32.2,30.7,30.36,NNW,329,0.0,11.0,94,0.00,,OVC024,0.00,VWS V12.07,2013-05-02 04:58:00,
2013-05-01 23:59:00,32.2,30.7,30.37,NW,321,1.0,11.0,94,0.00,,OVC024,0.00,VWS V12.07,2013-05-02 04:59:00,